<?xml version="1.0" encoding="UTF-8" standalone="no" ?>
<gpx xmlns="http://www.topografix.com/GPX/1/1" xmlns:xsi="http://www.w3.org/2001/XMLSchema-instance" xsi:schemaLocation="http://www.topografix.com/GPX/1/1 http://www.topografix.com/GPX/1/1/gpx.xsd" version="1.1" creator="VisuGPX - https://www.visugpx.com">
  <metadata>
    <name>Bois de la Marbrière.</name>
    <desc><![CDATA[Circuit périurbain aux portes de Grasse. Super after-taf.]]></desc>
  </metadata>
  <trk>
    <name><![CDATA[ACTIVE LOG 001]]></name>
    <trkseg>
      <trkpt lat="43.66789" lon="6.92216">
        <ele>539.4368896</ele>
        <time>2012-12-02T10:55:29Z</time>
      </trkpt>
      <trkpt lat="43.66789" lon="6.92214">
        <ele>539.4368896</ele>
        <time>2012-12-02T10:56:16Z</time>
      </trkpt>
      <trkpt lat="43.66772" lon="6.92179">
        <ele>538.9562988</ele>
        <time>2012-12-02T10:56:26Z</time>
      </trkpt>
      <trkpt lat="43.66764" lon="6.92172">
        <ele>539.4368896</ele>
        <time>2012-12-02T10:56:28Z</time>
      </trkpt>
      <trkpt lat="43.66753" lon="6.92161">
        <ele>537.9949951</ele>
        <time>2012-12-02T10:56:32Z</time>
      </trkpt>
      <trkpt lat="43.66739" lon="6.92137">
        <ele>538.475708</ele>
        <time>2012-12-02T10:56:35Z</time>
      </trkpt>
      <trkpt lat="43.66717" lon="6.92063">
        <ele>541.84021</ele>
        <time>2012-12-02T10:56:52Z</time>
      </trkpt>
      <trkpt lat="43.66704" lon="6.91969">
        <ele>545.6855469</ele>
        <time>2012-12-02T10:57:11Z</time>
      </trkpt>
      <trkpt lat="43.66704" lon="6.91891">
        <ele>549.0500488</ele>
        <time>2012-12-02T10:57:27Z</time>
      </trkpt>
      <trkpt lat="43.66712" lon="6.91816">
        <ele>552.4145508</ele>
        <time>2012-12-02T10:57:43Z</time>
      </trkpt>
      <trkpt lat="43.66724" lon="6.91746">
        <ele>555.298584</ele>
        <time>2012-12-02T10:57:59Z</time>
      </trkpt>
      <trkpt lat="43.66743" lon="6.91676">
        <ele>558.6633301</ele>
        <time>2012-12-02T10:58:15Z</time>
      </trkpt>
      <trkpt lat="43.66769" lon="6.91602">
        <ele>562.0280762</ele>
        <time>2012-12-02T10:58:33Z</time>
      </trkpt>
      <trkpt lat="43.66796" lon="6.91535">
        <ele>565.3925781</ele>
        <time>2012-12-02T10:58:50Z</time>
      </trkpt>
      <trkpt lat="43.66821" lon="6.91474">
        <ele>568.7570801</ele>
        <time>2012-12-02T10:59:07Z</time>
      </trkpt>
      <trkpt lat="43.66841" lon="6.9141">
        <ele>571.6408691</ele>
        <time>2012-12-02T10:59:24Z</time>
      </trkpt>
      <trkpt lat="43.66856" lon="6.91346">
        <ele>574.5251465</ele>
        <time>2012-12-02T10:59:41Z</time>
      </trkpt>
      <trkpt lat="43.66861" lon="6.91327">
        <ele>575.967041</ele>
        <time>2012-12-02T10:59:46Z</time>
      </trkpt>
      <trkpt lat="43.66879" lon="6.91258">
        <ele>578.8510742</ele>
        <time>2012-12-02T11:00:04Z</time>
      </trkpt>
      <trkpt lat="43.669" lon="6.91212">
        <ele>582.2155762</ele>
        <time>2012-12-02T11:00:21Z</time>
      </trkpt>
      <trkpt lat="43.66915" lon="6.91193">
        <ele>584.6188965</ele>
        <time>2012-12-02T11:00:33Z</time>
      </trkpt>
      <trkpt lat="43.66938" lon="6.91184">
        <ele>587.9833984</ele>
        <time>2012-12-02T11:00:48Z</time>
      </trkpt>
      <trkpt lat="43.66949" lon="6.91184">
        <ele>588.9450684</ele>
        <time>2012-12-02T11:00:54Z</time>
      </trkpt>
      <trkpt lat="43.66979" lon="6.91186">
        <ele>591.8288574</ele>
        <time>2012-12-02T11:01:13Z</time>
      </trkpt>
      <trkpt lat="43.66982" lon="6.91186">
        <ele>592.3095703</ele>
        <time>2012-12-02T11:01:15Z</time>
      </trkpt>
      <trkpt lat="43.6698" lon="6.91217">
        <ele>592.7902832</ele>
        <time>2012-12-02T11:01:19Z</time>
      </trkpt>
      <trkpt lat="43.66949" lon="6.91246">
        <ele>595.6740723</ele>
        <time>2012-12-02T11:01:42Z</time>
      </trkpt>
      <trkpt lat="43.66944" lon="6.91294">
        <ele>599.0385742</ele>
        <time>2012-12-02T11:02:02Z</time>
      </trkpt>
      <trkpt lat="43.66943" lon="6.91299">
        <ele>599.5192871</ele>
        <time>2012-12-02T11:02:04Z</time>
      </trkpt>
      <trkpt lat="43.66942" lon="6.91344">
        <ele>602.8837891</ele>
        <time>2012-12-02T11:02:23Z</time>
      </trkpt>
      <trkpt lat="43.66943" lon="6.91394">
        <ele>605.7680664</ele>
        <time>2012-12-02T11:02:46Z</time>
      </trkpt>
      <trkpt lat="43.66944" lon="6.91434">
        <ele>608.6518555</ele>
        <time>2012-12-02T11:03:03Z</time>
      </trkpt>
      <trkpt lat="43.66945" lon="6.91476">
        <ele>612.0166016</ele>
        <time>2012-12-02T11:03:22Z</time>
      </trkpt>
      <trkpt lat="43.66949" lon="6.91528">
        <ele>614.9003906</ele>
        <time>2012-12-02T11:03:45Z</time>
      </trkpt>
      <trkpt lat="43.66949" lon="6.9153">
        <ele>614.9003906</ele>
        <time>2012-12-02T11:03:46Z</time>
      </trkpt>
      <trkpt lat="43.66964" lon="6.91572">
        <ele>618.2648926</ele>
        <time>2012-12-02T11:04:06Z</time>
      </trkpt>
      <trkpt lat="43.6698" lon="6.91607">
        <ele>621.6296387</ele>
        <time>2012-12-02T11:04:25Z</time>
      </trkpt>
      <trkpt lat="43.67007" lon="6.91648">
        <ele>624.9943848</ele>
        <time>2012-12-02T11:04:48Z</time>
      </trkpt>
      <trkpt lat="43.6702" lon="6.91675">
        <ele>626.4362793</ele>
        <time>2012-12-02T11:05:02Z</time>
      </trkpt>
      <trkpt lat="43.67027" lon="6.91732">
        <ele>628.3588867</ele>
        <time>2012-12-02T11:05:25Z</time>
      </trkpt>
      <trkpt lat="43.67025" lon="6.91785">
        <ele>631.7233887</ele>
        <time>2012-12-02T11:05:47Z</time>
      </trkpt>
      <trkpt lat="43.67023" lon="6.91826">
        <ele>634.6074219</ele>
        <time>2012-12-02T11:06:04Z</time>
      </trkpt>
      <trkpt lat="43.67023" lon="6.91842">
        <ele>636.0495605</ele>
        <time>2012-12-02T11:06:11Z</time>
      </trkpt>
      <trkpt lat="43.67023" lon="6.91848">
        <ele>636.0495605</ele>
        <time>2012-12-02T11:06:14Z</time>
      </trkpt>
      <trkpt lat="43.67025" lon="6.91894">
        <ele>638.9335938</ele>
        <time>2012-12-02T11:06:33Z</time>
      </trkpt>
      <trkpt lat="43.67033" lon="6.9195">
        <ele>642.2980957</ele>
        <time>2012-12-02T11:06:57Z</time>
      </trkpt>
      <trkpt lat="43.6704" lon="6.91994">
        <ele>645.6625977</ele>
        <time>2012-12-02T11:07:16Z</time>
      </trkpt>
      <trkpt lat="43.67048" lon="6.92034">
        <ele>648.5463867</ele>
        <time>2012-12-02T11:07:34Z</time>
      </trkpt>
      <trkpt lat="43.67067" lon="6.92076">
        <ele>651.9111328</ele>
        <time>2012-12-02T11:07:56Z</time>
      </trkpt>
      <trkpt lat="43.67073" lon="6.92087">
        <ele>652.8725586</ele>
        <time>2012-12-02T11:08:03Z</time>
      </trkpt>
      <trkpt lat="43.6708" lon="6.92083">
        <ele>653.8339844</ele>
        <time>2012-12-02T11:08:09Z</time>
      </trkpt>
      <trkpt lat="43.6708" lon="6.92079">
        <ele>654.795166</ele>
        <time>2012-12-02T11:08:11Z</time>
      </trkpt>
      <trkpt lat="43.67079" lon="6.92073">
        <ele>655.2758789</ele>
        <time>2012-12-02T11:08:14Z</time>
      </trkpt>
      <trkpt lat="43.6708" lon="6.92038">
        <ele>659.6018066</ele>
        <time>2012-12-02T11:08:31Z</time>
      </trkpt>
      <trkpt lat="43.67088" lon="6.91999">
        <ele>662.9663086</ele>
        <time>2012-12-02T11:08:50Z</time>
      </trkpt>
      <trkpt lat="43.67098" lon="6.91962">
        <ele>666.3308105</ele>
        <time>2012-12-02T11:09:09Z</time>
      </trkpt>
      <trkpt lat="43.67111" lon="6.91925">
        <ele>669.6958008</ele>
        <time>2012-12-02T11:09:30Z</time>
      </trkpt>
      <trkpt lat="43.67115" lon="6.91915">
        <ele>671.1376953</ele>
        <time>2012-12-02T11:09:36Z</time>
      </trkpt>
      <trkpt lat="43.6713" lon="6.91884">
        <ele>674.0214844</ele>
        <time>2012-12-02T11:09:56Z</time>
      </trkpt>
      <trkpt lat="43.67143" lon="6.91857">
        <ele>677.3862305</ele>
        <time>2012-12-02T11:10:13Z</time>
      </trkpt>
      <trkpt lat="43.67157" lon="6.91831">
        <ele>680.2700195</ele>
        <time>2012-12-02T11:10:29Z</time>
      </trkpt>
      <trkpt lat="43.67161" lon="6.91825">
        <ele>681.2314453</ele>
        <time>2012-12-02T11:10:33Z</time>
      </trkpt>
      <trkpt lat="43.67164" lon="6.91822">
        <ele>682.192627</ele>
        <time>2012-12-02T11:10:36Z</time>
      </trkpt>
      <trkpt lat="43.67169" lon="6.91831">
        <ele>683.6345215</ele>
        <time>2012-12-02T11:10:43Z</time>
      </trkpt>
      <trkpt lat="43.67166" lon="6.91852">
        <ele>686.0380859</ele>
        <time>2012-12-02T11:10:54Z</time>
      </trkpt>
      <trkpt lat="43.67164" lon="6.91898">
        <ele>689.4025879</ele>
        <time>2012-12-02T11:11:16Z</time>
      </trkpt>
      <trkpt lat="43.67164" lon="6.91949">
        <ele>691.8059082</ele>
        <time>2012-12-02T11:11:40Z</time>
      </trkpt>
      <trkpt lat="43.67171" lon="6.91984">
        <ele>695.1704102</ele>
        <time>2012-12-02T11:11:58Z</time>
      </trkpt>
      <trkpt lat="43.67187" lon="6.92001">
        <ele>698.0544434</ele>
        <time>2012-12-02T11:12:13Z</time>
      </trkpt>
      <trkpt lat="43.67212" lon="6.92018">
        <ele>701.4191895</ele>
        <time>2012-12-02T11:12:33Z</time>
      </trkpt>
      <trkpt lat="43.67239" lon="6.92039">
        <ele>704.3032227</ele>
        <time>2012-12-02T11:12:54Z</time>
      </trkpt>
      <trkpt lat="43.6725" lon="6.92051">
        <ele>705.7451172</ele>
        <time>2012-12-02T11:13:04Z</time>
      </trkpt>
      <trkpt lat="43.67266" lon="6.9208">
        <ele>709.590332</ele>
        <time>2012-12-02T11:13:24Z</time>
      </trkpt>
      <trkpt lat="43.67281" lon="6.92109">
        <ele>712.954834</ele>
        <time>2012-12-02T11:13:43Z</time>
      </trkpt>
      <trkpt lat="43.67294" lon="6.92142">
        <ele>715.8388672</ele>
        <time>2012-12-02T11:14:02Z</time>
      </trkpt>
      <trkpt lat="43.67298" lon="6.92152">
        <ele>716.800293</ele>
        <time>2012-12-02T11:14:08Z</time>
      </trkpt>
      <trkpt lat="43.67299" lon="6.92155">
        <ele>717.2810059</ele>
        <time>2012-12-02T11:14:10Z</time>
      </trkpt>
      <trkpt lat="43.67307" lon="6.92177">
        <ele>719.2036133</ele>
        <time>2012-12-02T11:14:22Z</time>
      </trkpt>
      <trkpt lat="43.67319" lon="6.92212">
        <ele>722.5681152</ele>
        <time>2012-12-02T11:14:40Z</time>
      </trkpt>
      <trkpt lat="43.67333" lon="6.92251">
        <ele>725.4519043</ele>
        <time>2012-12-02T11:15:02Z</time>
      </trkpt>
      <trkpt lat="43.67334" lon="6.92255">
        <ele>726.4133301</ele>
        <time>2012-12-02T11:15:05Z</time>
      </trkpt>
      <trkpt lat="43.67336" lon="6.92259">
        <ele>726.4133301</ele>
        <time>2012-12-02T11:15:07Z</time>
      </trkpt>
      <trkpt lat="43.6735" lon="6.92299">
        <ele>729.777832</ele>
        <time>2012-12-02T11:15:30Z</time>
      </trkpt>
      <trkpt lat="43.67358" lon="6.92321">
        <ele>731.2199707</ele>
        <time>2012-12-02T11:16:10Z</time>
      </trkpt>
      <trkpt lat="43.67371" lon="6.9236">
        <ele>734.5847168</ele>
        <time>2012-12-02T11:16:31Z</time>
      </trkpt>
      <trkpt lat="43.67381" lon="6.92409">
        <ele>737.9492188</ele>
        <time>2012-12-02T11:16:55Z</time>
      </trkpt>
      <trkpt lat="43.67388" lon="6.92453">
        <ele>740.3525391</ele>
        <time>2012-12-02T11:17:16Z</time>
      </trkpt>
      <trkpt lat="43.67405" lon="6.92505">
        <ele>743.717041</ele>
        <time>2012-12-02T11:17:41Z</time>
      </trkpt>
      <trkpt lat="43.6742" lon="6.92532">
        <ele>746.6010742</ele>
        <time>2012-12-02T11:17:58Z</time>
      </trkpt>
      <trkpt lat="43.67436" lon="6.92556">
        <ele>749.9658203</ele>
        <time>2012-12-02T11:18:15Z</time>
      </trkpt>
      <trkpt lat="43.67456" lon="6.9258">
        <ele>752.8496094</ele>
        <time>2012-12-02T11:18:32Z</time>
      </trkpt>
      <trkpt lat="43.67491" lon="6.92601">
        <ele>755.7336426</ele>
        <time>2012-12-02T11:18:57Z</time>
      </trkpt>
      <trkpt lat="43.67502" lon="6.92606">
        <ele>756.6948242</ele>
        <time>2012-12-02T11:19:05Z</time>
      </trkpt>
      <trkpt lat="43.67511" lon="6.92609">
        <ele>757.65625</ele>
        <time>2012-12-02T11:19:11Z</time>
      </trkpt>
      <trkpt lat="43.67545" lon="6.9262">
        <ele>761.020752</ele>
        <time>2012-12-02T11:19:35Z</time>
      </trkpt>
      <trkpt lat="43.67578" lon="6.92619">
        <ele>763.904541</ele>
        <time>2012-12-02T11:19:57Z</time>
      </trkpt>
      <trkpt lat="43.67599" lon="6.92613">
        <ele>765.8276367</ele>
        <time>2012-12-02T11:20:11Z</time>
      </trkpt>
      <trkpt lat="43.67623" lon="6.92605">
        <ele>767.75</ele>
        <time>2012-12-02T11:20:26Z</time>
      </trkpt>
      <trkpt lat="43.6764" lon="6.92599">
        <ele>768.7114258</ele>
        <time>2012-12-02T11:20:37Z</time>
      </trkpt>
      <trkpt lat="43.67646" lon="6.92597">
        <ele>769.1921387</ele>
        <time>2012-12-02T11:20:41Z</time>
      </trkpt>
      <trkpt lat="43.67656" lon="6.92594">
        <ele>771.1147461</ele>
        <time>2012-12-02T11:20:48Z</time>
      </trkpt>
      <trkpt lat="43.67656" lon="6.92594">
        <ele>770.6340332</ele>
        <time>2012-12-02T11:21:18Z</time>
      </trkpt>
      <trkpt lat="43.67668" lon="6.92587">
        <ele>772.5566406</ele>
        <time>2012-12-02T11:21:44Z</time>
      </trkpt>
      <trkpt lat="43.67698" lon="6.92572">
        <ele>775.9211426</ele>
        <time>2012-12-02T11:22:07Z</time>
      </trkpt>
      <trkpt lat="43.67709" lon="6.92566">
        <ele>777.3632813</ele>
        <time>2012-12-02T11:22:15Z</time>
      </trkpt>
      <trkpt lat="43.67715" lon="6.92563">
        <ele>777.84375</ele>
        <time>2012-12-02T11:22:21Z</time>
      </trkpt>
      <trkpt lat="43.67736" lon="6.92553">
        <ele>781.689209</ele>
        <time>2012-12-02T11:22:36Z</time>
      </trkpt>
      <trkpt lat="43.6775" lon="6.92544">
        <ele>784.5732422</ele>
        <time>2012-12-02T11:22:49Z</time>
      </trkpt>
      <trkpt lat="43.67779" lon="6.92526">
        <ele>787.4570313</ele>
        <time>2012-12-02T11:23:10Z</time>
      </trkpt>
      <trkpt lat="43.67801" lon="6.92516">
        <ele>789.8603516</ele>
        <time>2012-12-02T11:23:26Z</time>
      </trkpt>
      <trkpt lat="43.67809" lon="6.92512">
        <ele>790.8215332</ele>
        <time>2012-12-02T11:23:50Z</time>
      </trkpt>
      <trkpt lat="43.67816" lon="6.92509">
        <ele>791.782959</ele>
        <time>2012-12-02T11:24:02Z</time>
      </trkpt>
      <trkpt lat="43.67824" lon="6.92505">
        <ele>793.2248535</ele>
        <time>2012-12-02T11:24:09Z</time>
      </trkpt>
      <trkpt lat="43.67823" lon="6.92502">
        <ele>794.666748</ele>
        <time>2012-12-02T11:24:16Z</time>
      </trkpt>
      <trkpt lat="43.67788" lon="6.92509">
        <ele>795.6281738</ele>
        <time>2012-12-02T11:24:39Z</time>
      </trkpt>
      <trkpt lat="43.67767" lon="6.92506">
        <ele>798.512207</ele>
        <time>2012-12-02T11:24:53Z</time>
      </trkpt>
      <trkpt lat="43.6775" lon="6.92506">
        <ele>800.4350586</ele>
        <time>2012-12-02T11:25:05Z</time>
      </trkpt>
      <trkpt lat="43.67721" lon="6.92495">
        <ele>803.7995605</ele>
        <time>2012-12-02T11:25:28Z</time>
      </trkpt>
      <trkpt lat="43.67704" lon="6.92485">
        <ele>806.6833496</ele>
        <time>2012-12-02T11:25:42Z</time>
      </trkpt>
      <trkpt lat="43.67695" lon="6.92479">
        <ele>808.605957</ele>
        <time>2012-12-02T11:25:55Z</time>
      </trkpt>
      <trkpt lat="43.67685" lon="6.92475">
        <ele>811.4899902</ele>
        <time>2012-12-02T11:26:07Z</time>
      </trkpt>
      <trkpt lat="43.67673" lon="6.92469">
        <ele>812.9321289</ele>
        <time>2012-12-02T11:26:18Z</time>
      </trkpt>
      <trkpt lat="43.6767" lon="6.92468">
        <ele>813.8933105</ele>
        <time>2012-12-02T11:26:20Z</time>
      </trkpt>
      <trkpt lat="43.67654" lon="6.92463">
        <ele>815.8161621</ele>
        <time>2012-12-02T11:26:34Z</time>
      </trkpt>
      <trkpt lat="43.67648" lon="6.92463">
        <ele>816.7773438</ele>
        <time>2012-12-02T11:26:39Z</time>
      </trkpt>
      <trkpt lat="43.6764" lon="6.92459">
        <ele>818.2192383</ele>
        <time>2012-12-02T11:26:47Z</time>
      </trkpt>
      <trkpt lat="43.67637" lon="6.92455">
        <ele>818.2192383</ele>
        <time>2012-12-02T11:26:52Z</time>
      </trkpt>
      <trkpt lat="43.67613" lon="6.9243">
        <ele>821.5837402</ele>
        <time>2012-12-02T11:27:12Z</time>
      </trkpt>
      <trkpt lat="43.67592" lon="6.92406">
        <ele>823.0258789</ele>
        <time>2012-12-02T11:27:32Z</time>
      </trkpt>
      <trkpt lat="43.67571" lon="6.92375">
        <ele>824.4677734</ele>
        <time>2012-12-02T11:27:52Z</time>
      </trkpt>
      <trkpt lat="43.67564" lon="6.92371">
        <ele>824.4677734</ele>
        <time>2012-12-02T11:27:57Z</time>
      </trkpt>
      <trkpt lat="43.67561" lon="6.92364">
        <ele>824.9484863</ele>
        <time>2012-12-02T11:28:01Z</time>
      </trkpt>
      <trkpt lat="43.6756" lon="6.92359">
        <ele>824.9484863</ele>
        <time>2012-12-02T11:28:03Z</time>
      </trkpt>
      <trkpt lat="43.6756" lon="6.92353">
        <ele>824.9484863</ele>
        <time>2012-12-02T11:28:20Z</time>
      </trkpt>
      <trkpt lat="43.6756" lon="6.92354">
        <ele>824.9484863</ele>
        <time>2012-12-02T11:28:39Z</time>
      </trkpt>
      <trkpt lat="43.67564" lon="6.92348">
        <ele>824.9484863</ele>
        <time>2012-12-02T11:28:44Z</time>
      </trkpt>
      <trkpt lat="43.67566" lon="6.92341">
        <ele>826.3903809</ele>
        <time>2012-12-02T11:28:48Z</time>
      </trkpt>
      <trkpt lat="43.67565" lon="6.9233">
        <ele>828.3132324</ele>
        <time>2012-12-02T11:29:10Z</time>
      </trkpt>
      <trkpt lat="43.67566" lon="6.92324">
        <ele>828.7939453</ele>
        <time>2012-12-02T11:29:21Z</time>
      </trkpt>
      <trkpt lat="43.67567" lon="6.92295">
        <ele>832.1584473</ele>
        <time>2012-12-02T11:29:37Z</time>
      </trkpt>
      <trkpt lat="43.67565" lon="6.92267">
        <ele>833.6003418</ele>
        <time>2012-12-02T11:29:53Z</time>
      </trkpt>
      <trkpt lat="43.67564" lon="6.92264">
        <ele>833.6003418</ele>
        <time>2012-12-02T11:30:14Z</time>
      </trkpt>
      <trkpt lat="43.67563" lon="6.92241">
        <ele>835.0424805</ele>
        <time>2012-12-02T11:30:24Z</time>
      </trkpt>
      <trkpt lat="43.6756" lon="6.922">
        <ele>836.484375</ele>
        <time>2012-12-02T11:30:41Z</time>
      </trkpt>
      <trkpt lat="43.67555" lon="6.92162">
        <ele>837.4455566</ele>
        <time>2012-12-02T11:30:57Z</time>
      </trkpt>
      <trkpt lat="43.67551" lon="6.92111">
        <ele>836.484375</ele>
        <time>2012-12-02T11:31:11Z</time>
      </trkpt>
      <trkpt lat="43.67558" lon="6.9207">
        <ele>836.0036621</ele>
        <time>2012-12-02T11:31:26Z</time>
      </trkpt>
      <trkpt lat="43.67567" lon="6.92043">
        <ele>838.8876953</ele>
        <time>2012-12-02T11:31:40Z</time>
      </trkpt>
      <trkpt lat="43.67575" lon="6.92026">
        <ele>839.848877</ele>
        <time>2012-12-02T11:31:49Z</time>
      </trkpt>
      <trkpt lat="43.67577" lon="6.9202">
        <ele>840.3295898</ele>
        <time>2012-12-02T11:31:53Z</time>
      </trkpt>
      <trkpt lat="43.67579" lon="6.92017">
        <ele>840.3295898</ele>
        <time>2012-12-02T11:31:55Z</time>
      </trkpt>
      <trkpt lat="43.6758" lon="6.92011">
        <ele>840.8100586</ele>
        <time>2012-12-02T11:31:57Z</time>
      </trkpt>
      <trkpt lat="43.6759" lon="6.92">
        <ele>841.2907715</ele>
        <time>2012-12-02T11:32:05Z</time>
      </trkpt>
      <trkpt lat="43.67595" lon="6.91991">
        <ele>842.7329102</ele>
        <time>2012-12-02T11:32:11Z</time>
      </trkpt>
      <trkpt lat="43.67609" lon="6.91979">
        <ele>844.1750488</ele>
        <time>2012-12-02T11:32:28Z</time>
      </trkpt>
      <trkpt lat="43.67611" lon="6.91978">
        <ele>845.1362305</ele>
        <time>2012-12-02T11:32:30Z</time>
      </trkpt>
      <trkpt lat="43.67622" lon="6.91967">
        <ele>846.0976563</ele>
        <time>2012-12-02T11:32:47Z</time>
      </trkpt>
      <trkpt lat="43.67623" lon="6.91965">
        <ele>846.0976563</ele>
        <time>2012-12-02T11:32:49Z</time>
      </trkpt>
      <trkpt lat="43.67629" lon="6.91961">
        <ele>845.6169434</ele>
        <time>2012-12-02T11:32:53Z</time>
      </trkpt>
      <trkpt lat="43.67632" lon="6.91961">
        <ele>845.1362305</ele>
        <time>2012-12-02T11:32:55Z</time>
      </trkpt>
      <trkpt lat="43.67644" lon="6.9196">
        <ele>846.5783691</ele>
        <time>2012-12-02T11:33:09Z</time>
      </trkpt>
      <trkpt lat="43.6765" lon="6.91946">
        <ele>846.0976563</ele>
        <time>2012-12-02T11:33:25Z</time>
      </trkpt>
      <trkpt lat="43.67656" lon="6.91937">
        <ele>845.1362305</ele>
        <time>2012-12-02T11:33:29Z</time>
      </trkpt>
      <trkpt lat="43.67659" lon="6.91935">
        <ele>844.1750488</ele>
        <time>2012-12-02T11:33:31Z</time>
      </trkpt>
      <trkpt lat="43.67661" lon="6.91935">
        <ele>844.1750488</ele>
        <time>2012-12-02T11:33:33Z</time>
      </trkpt>
      <trkpt lat="43.67666" lon="6.91934">
        <ele>845.1362305</ele>
        <time>2012-12-02T11:33:41Z</time>
      </trkpt>
      <trkpt lat="43.6768" lon="6.91936">
        <ele>845.1362305</ele>
        <time>2012-12-02T11:33:52Z</time>
      </trkpt>
      <trkpt lat="43.67701" lon="6.91948">
        <ele>848.5007324</ele>
        <time>2012-12-02T11:34:08Z</time>
      </trkpt>
      <trkpt lat="43.67712" lon="6.91956">
        <ele>848.9814453</ele>
        <time>2012-12-02T11:34:17Z</time>
      </trkpt>
      <trkpt lat="43.67735" lon="6.91971">
        <ele>851.3847656</ele>
        <time>2012-12-02T11:34:35Z</time>
      </trkpt>
      <trkpt lat="43.67744" lon="6.91977">
        <ele>853.7880859</ele>
        <time>2012-12-02T11:34:47Z</time>
      </trkpt>
      <trkpt lat="43.67744" lon="6.91986">
        <ele>855.2299805</ele>
        <time>2012-12-02T11:34:54Z</time>
      </trkpt>
      <trkpt lat="43.67741" lon="6.9199">
        <ele>855.7106934</ele>
        <time>2012-12-02T11:34:58Z</time>
      </trkpt>
      <trkpt lat="43.67739" lon="6.91994">
        <ele>856.671875</ele>
        <time>2012-12-02T11:35:02Z</time>
      </trkpt>
      <trkpt lat="43.67736" lon="6.92">
        <ele>858.1140137</ele>
        <time>2012-12-02T11:35:07Z</time>
      </trkpt>
      <trkpt lat="43.67732" lon="6.92004">
        <ele>858.1140137</ele>
        <time>2012-12-02T11:35:12Z</time>
      </trkpt>
      <trkpt lat="43.67737" lon="6.92033">
        <ele>861.9594727</ele>
        <time>2012-12-02T11:35:32Z</time>
      </trkpt>
      <trkpt lat="43.67745" lon="6.92061">
        <ele>865.3239746</ele>
        <time>2012-12-02T11:35:54Z</time>
      </trkpt>
      <trkpt lat="43.67755" lon="6.92081">
        <ele>868.6884766</ele>
        <time>2012-12-02T11:36:14Z</time>
      </trkpt>
      <trkpt lat="43.67756" lon="6.92081">
        <ele>869.1691895</ele>
        <time>2012-12-02T11:36:15Z</time>
      </trkpt>
      <trkpt lat="43.67769" lon="6.92089">
        <ele>871.0917969</ele>
        <time>2012-12-02T11:36:27Z</time>
      </trkpt>
      <trkpt lat="43.67772" lon="6.92089">
        <ele>871.0917969</ele>
        <time>2012-12-02T11:36:38Z</time>
      </trkpt>
      <trkpt lat="43.67793" lon="6.92093">
        <ele>874.4562988</ele>
        <time>2012-12-02T11:36:55Z</time>
      </trkpt>
      <trkpt lat="43.67809" lon="6.92096">
        <ele>876.3791504</ele>
        <time>2012-12-02T11:37:08Z</time>
      </trkpt>
      <trkpt lat="43.67818" lon="6.92099">
        <ele>877.8210449</ele>
        <time>2012-12-02T11:37:14Z</time>
      </trkpt>
      <trkpt lat="43.67847" lon="6.92125">
        <ele>878.7824707</ele>
        <time>2012-12-02T11:37:35Z</time>
      </trkpt>
      <trkpt lat="43.67871" lon="6.92148">
        <ele>880.2243652</ele>
        <time>2012-12-02T11:37:53Z</time>
      </trkpt>
      <trkpt lat="43.67868" lon="6.92158">
        <ele>881.6662598</ele>
        <time>2012-12-02T11:37:59Z</time>
      </trkpt>
      <trkpt lat="43.67847" lon="6.92178">
        <ele>885.5114746</ele>
        <time>2012-12-02T11:38:15Z</time>
      </trkpt>
      <trkpt lat="43.67835" lon="6.92205">
        <ele>888.8762207</ele>
        <time>2012-12-02T11:38:29Z</time>
      </trkpt>
      <trkpt lat="43.6783" lon="6.92213">
        <ele>889.8374023</ele>
        <time>2012-12-02T11:38:34Z</time>
      </trkpt>
      <trkpt lat="43.67822" lon="6.92219">
        <ele>890.3181152</ele>
        <time>2012-12-02T11:38:54Z</time>
      </trkpt>
      <trkpt lat="43.67811" lon="6.92227">
        <ele>891.2792969</ele>
        <time>2012-12-02T11:39:13Z</time>
      </trkpt>
      <trkpt lat="43.67811" lon="6.92227">
        <ele>891.2792969</ele>
        <time>2012-12-02T11:39:37Z</time>
      </trkpt>
      <trkpt lat="43.67813" lon="6.92225">
        <ele>891.2792969</ele>
        <time>2012-12-02T11:39:55Z</time>
      </trkpt>
      <trkpt lat="43.67819" lon="6.92222">
        <ele>889.8374023</ele>
        <time>2012-12-02T11:40:00Z</time>
      </trkpt>
      <trkpt lat="43.67836" lon="6.92204">
        <ele>887.9147949</ele>
        <time>2012-12-02T11:40:09Z</time>
      </trkpt>
      <trkpt lat="43.67841" lon="6.92192">
        <ele>886.9533691</ele>
        <time>2012-12-02T11:40:12Z</time>
      </trkpt>
      <trkpt lat="43.67853" lon="6.92168">
        <ele>885.0310059</ele>
        <time>2012-12-02T11:40:16Z</time>
      </trkpt>
      <trkpt lat="43.67864" lon="6.92159">
        <ele>882.6276855</ele>
        <time>2012-12-02T11:40:18Z</time>
      </trkpt>
      <trkpt lat="43.67885" lon="6.92155">
        <ele>880.7050781</ele>
        <time>2012-12-02T11:40:21Z</time>
      </trkpt>
      <trkpt lat="43.6793" lon="6.92152">
        <ele>881.6662598</ele>
        <time>2012-12-02T11:40:33Z</time>
      </trkpt>
      <trkpt lat="43.67971" lon="6.92139">
        <ele>885.0310059</ele>
        <time>2012-12-02T11:40:49Z</time>
      </trkpt>
      <trkpt lat="43.68027" lon="6.9212">
        <ele>887.434082</ele>
        <time>2012-12-02T11:41:09Z</time>
      </trkpt>
      <trkpt lat="43.68057" lon="6.92106">
        <ele>889.8374023</ele>
        <time>2012-12-02T11:41:23Z</time>
      </trkpt>
      <trkpt lat="43.68081" lon="6.92095">
        <ele>893.2021484</ele>
        <time>2012-12-02T11:41:35Z</time>
      </trkpt>
      <trkpt lat="43.68116" lon="6.92076">
        <ele>894.644043</ele>
        <time>2012-12-02T11:41:54Z</time>
      </trkpt>
      <trkpt lat="43.68142" lon="6.92062">
        <ele>895.1247559</ele>
        <time>2012-12-02T11:42:07Z</time>
      </trkpt>
      <trkpt lat="43.6818" lon="6.92044">
        <ele>896.0861816</ele>
        <time>2012-12-02T11:42:26Z</time>
      </trkpt>
      <trkpt lat="43.682" lon="6.92036">
        <ele>896.0861816</ele>
        <time>2012-12-02T11:42:36Z</time>
      </trkpt>
      <trkpt lat="43.6821" lon="6.92033">
        <ele>896.0861816</ele>
        <time>2012-12-02T11:42:41Z</time>
      </trkpt>
      <trkpt lat="43.6822" lon="6.92029">
        <ele>897.5280762</ele>
        <time>2012-12-02T11:42:47Z</time>
      </trkpt>
      <trkpt lat="43.6823" lon="6.92026">
        <ele>898.4892578</ele>
        <time>2012-12-02T11:42:53Z</time>
      </trkpt>
      <trkpt lat="43.68237" lon="6.92023">
        <ele>898.4892578</ele>
        <time>2012-12-02T11:42:57Z</time>
      </trkpt>
      <trkpt lat="43.68273" lon="6.92003">
        <ele>899.4506836</ele>
        <time>2012-12-02T11:43:19Z</time>
      </trkpt>
      <trkpt lat="43.68273" lon="6.92003">
        <ele>900.4121094</ele>
        <time>2012-12-02T11:43:43Z</time>
      </trkpt>
      <trkpt lat="43.68273" lon="6.92003">
        <ele>899.9313965</ele>
        <time>2012-12-02T11:44:02Z</time>
      </trkpt>
      <trkpt lat="43.68276" lon="6.92004">
        <ele>900.4121094</ele>
        <time>2012-12-02T11:44:06Z</time>
      </trkpt>
      <trkpt lat="43.68281" lon="6.92019">
        <ele>900.4121094</ele>
        <time>2012-12-02T11:44:13Z</time>
      </trkpt>
      <trkpt lat="43.68285" lon="6.92026">
        <ele>901.373291</ele>
        <time>2012-12-02T11:44:27Z</time>
      </trkpt>
      <trkpt lat="43.68308" lon="6.92074">
        <ele>901.8540039</ele>
        <time>2012-12-02T11:44:45Z</time>
      </trkpt>
      <trkpt lat="43.68331" lon="6.92102">
        <ele>904.2573242</ele>
        <time>2012-12-02T11:44:58Z</time>
      </trkpt>
      <trkpt lat="43.68349" lon="6.92113">
        <ele>903.7766113</ele>
        <time>2012-12-02T11:45:08Z</time>
      </trkpt>
      <trkpt lat="43.68352" lon="6.92107">
        <ele>905.2185059</ele>
        <time>2012-12-02T11:45:11Z</time>
      </trkpt>
      <trkpt lat="43.68356" lon="6.92103">
        <ele>906.1796875</ele>
        <time>2012-12-02T11:45:15Z</time>
      </trkpt>
      <trkpt lat="43.68359" lon="6.92098">
        <ele>906.1796875</ele>
        <time>2012-12-02T11:45:19Z</time>
      </trkpt>
      <trkpt lat="43.68321" lon="6.92113">
        <ele>907.1411133</ele>
        <time>2012-12-02T11:45:24Z</time>
      </trkpt>
      <trkpt lat="43.6836" lon="6.92096">
        <ele>908.1027832</ele>
        <time>2012-12-02T11:45:26Z</time>
      </trkpt>
      <trkpt lat="43.68364" lon="6.92091">
        <ele>909.0639648</ele>
        <time>2012-12-02T11:45:29Z</time>
      </trkpt>
      <trkpt lat="43.68382" lon="6.92062">
        <ele>911.947998</ele>
        <time>2012-12-02T11:45:46Z</time>
      </trkpt>
      <trkpt lat="43.68395" lon="6.92046">
        <ele>912.4284668</ele>
        <time>2012-12-02T11:45:57Z</time>
      </trkpt>
      <trkpt lat="43.68398" lon="6.92043">
        <ele>912.9091797</ele>
        <time>2012-12-02T11:45:59Z</time>
      </trkpt>
      <trkpt lat="43.68406" lon="6.92036">
        <ele>912.4284668</ele>
        <time>2012-12-02T11:46:04Z</time>
      </trkpt>
      <trkpt lat="43.68437" lon="6.92013">
        <ele>914.3510742</ele>
        <time>2012-12-02T11:46:22Z</time>
      </trkpt>
      <trkpt lat="43.68467" lon="6.91982">
        <ele>915.7932129</ele>
        <time>2012-12-02T11:46:42Z</time>
      </trkpt>
      <trkpt lat="43.68497" lon="6.91943">
        <ele>917.2351074</ele>
        <time>2012-12-02T11:47:00Z</time>
      </trkpt>
      <trkpt lat="43.68528" lon="6.9191">
        <ele>920.1188965</ele>
        <time>2012-12-02T11:47:19Z</time>
      </trkpt>
      <trkpt lat="43.6853" lon="6.91906">
        <ele>920.5996094</ele>
        <time>2012-12-02T11:47:21Z</time>
      </trkpt>
      <trkpt lat="43.68537" lon="6.91897">
        <ele>921.560791</ele>
        <time>2012-12-02T11:47:26Z</time>
      </trkpt>
      <trkpt lat="43.68546" lon="6.91897">
        <ele>922.0415039</ele>
        <time>2012-12-02T11:47:30Z</time>
      </trkpt>
      <trkpt lat="43.68553" lon="6.91898">
        <ele>923.0029297</ele>
        <time>2012-12-02T11:47:35Z</time>
      </trkpt>
      <trkpt lat="43.68565" lon="6.91897">
        <ele>923.4836426</ele>
        <time>2012-12-02T11:47:42Z</time>
      </trkpt>
      <trkpt lat="43.68585" lon="6.91906">
        <ele>925.8869629</ele>
        <time>2012-12-02T11:47:55Z</time>
      </trkpt>
      <trkpt lat="43.68605" lon="6.91908">
        <ele>929.2514648</ele>
        <time>2012-12-02T11:48:11Z</time>
      </trkpt>
      <trkpt lat="43.6864" lon="6.91904">
        <ele>932.135498</ele>
        <time>2012-12-02T11:48:32Z</time>
      </trkpt>
      <trkpt lat="43.68645" lon="6.91899">
        <ele>933.0966797</ele>
        <time>2012-12-02T11:48:36Z</time>
      </trkpt>
      <trkpt lat="43.68677" lon="6.91879">
        <ele>935.5</ele>
        <time>2012-12-02T11:48:59Z</time>
      </trkpt>
      <trkpt lat="43.687" lon="6.91864">
        <ele>936.9418945</ele>
        <time>2012-12-02T11:49:16Z</time>
      </trkpt>
      <trkpt lat="43.68729" lon="6.91848">
        <ele>940.7873535</ele>
        <time>2012-12-02T11:49:35Z</time>
      </trkpt>
      <trkpt lat="43.68744" lon="6.9184">
        <ele>941.7487793</ele>
        <time>2012-12-02T11:49:45Z</time>
      </trkpt>
      <trkpt lat="43.68748" lon="6.91838">
        <ele>942.2294922</ele>
        <time>2012-12-02T11:49:48Z</time>
      </trkpt>
      <trkpt lat="43.68769" lon="6.91827">
        <ele>942.7102051</ele>
        <time>2012-12-02T11:50:02Z</time>
      </trkpt>
      <trkpt lat="43.68782" lon="6.91822">
        <ele>943.6713867</ele>
        <time>2012-12-02T11:50:10Z</time>
      </trkpt>
      <trkpt lat="43.68804" lon="6.91826">
        <ele>944.1520996</ele>
        <time>2012-12-02T11:50:22Z</time>
      </trkpt>
      <trkpt lat="43.68836" lon="6.91836">
        <ele>946.074707</ele>
        <time>2012-12-02T11:50:39Z</time>
      </trkpt>
      <trkpt lat="43.68867" lon="6.91836">
        <ele>947.5166016</ele>
        <time>2012-12-02T11:50:55Z</time>
      </trkpt>
      <trkpt lat="43.68882" lon="6.91842">
        <ele>947.0358887</ele>
        <time>2012-12-02T11:51:02Z</time>
      </trkpt>
      <trkpt lat="43.689" lon="6.91836">
        <ele>948.4777832</ele>
        <time>2012-12-02T11:51:13Z</time>
      </trkpt>
      <trkpt lat="43.68926" lon="6.91827">
        <ele>950.8811035</ele>
        <time>2012-12-02T11:51:25Z</time>
      </trkpt>
      <trkpt lat="43.68934" lon="6.91825">
        <ele>950.8811035</ele>
        <time>2012-12-02T11:51:29Z</time>
      </trkpt>
      <trkpt lat="43.68956" lon="6.91822">
        <ele>954.2458496</ele>
        <time>2012-12-02T11:51:40Z</time>
      </trkpt>
      <trkpt lat="43.68982" lon="6.91793">
        <ele>957.1298828</ele>
        <time>2012-12-02T11:51:57Z</time>
      </trkpt>
      <trkpt lat="43.68989" lon="6.91768">
        <ele>959.0524902</ele>
        <time>2012-12-02T11:52:08Z</time>
      </trkpt>
      <trkpt lat="43.6899" lon="6.91724">
        <ele>962.8977051</ele>
        <time>2012-12-02T11:52:26Z</time>
      </trkpt>
      <trkpt lat="43.68994" lon="6.91689">
        <ele>966.7429199</ele>
        <time>2012-12-02T11:52:41Z</time>
      </trkpt>
      <trkpt lat="43.68996" lon="6.91686">
        <ele>966.7429199</ele>
        <time>2012-12-02T11:52:42Z</time>
      </trkpt>
      <trkpt lat="43.69038" lon="6.91651">
        <ele>969.1462402</ele>
        <time>2012-12-02T11:53:09Z</time>
      </trkpt>
      <trkpt lat="43.6906" lon="6.91591">
        <ele>972.0302734</ele>
        <time>2012-12-02T11:53:33Z</time>
      </trkpt>
      <trkpt lat="43.69061" lon="6.91584">
        <ele>972.0302734</ele>
        <time>2012-12-02T11:53:36Z</time>
      </trkpt>
      <trkpt lat="43.69061" lon="6.91584">
        <ele>972.5109863</ele>
        <time>2012-12-02T11:53:38Z</time>
      </trkpt>
      <trkpt lat="43.69061" lon="6.91584">
        <ele>972.5109863</ele>
        <time>2012-12-02T11:53:56Z</time>
      </trkpt>
      <trkpt lat="43.69062" lon="6.9157">
        <ele>973.9528809</ele>
        <time>2012-12-02T11:54:04Z</time>
      </trkpt>
      <trkpt lat="43.69063" lon="6.91554">
        <ele>974.4335938</ele>
        <time>2012-12-02T11:54:11Z</time>
      </trkpt>
      <trkpt lat="43.69064" lon="6.91535">
        <ele>974.9143066</ele>
        <time>2012-12-02T11:54:19Z</time>
      </trkpt>
      <trkpt lat="43.69066" lon="6.91482">
        <ele>977.7980957</ele>
        <time>2012-12-02T11:54:39Z</time>
      </trkpt>
      <trkpt lat="43.69083" lon="6.91427">
        <ele>980.201416</ele>
        <time>2012-12-02T11:54:59Z</time>
      </trkpt>
      <trkpt lat="43.69097" lon="6.91395">
        <ele>981.1628418</ele>
        <time>2012-12-02T11:55:11Z</time>
      </trkpt>
      <trkpt lat="43.69115" lon="6.91338">
        <ele>983.565918</ele>
        <time>2012-12-02T11:55:31Z</time>
      </trkpt>
      <trkpt lat="43.69117" lon="6.91336">
        <ele>983.565918</ele>
        <time>2012-12-02T11:55:32Z</time>
      </trkpt>
      <trkpt lat="43.69136" lon="6.91322">
        <ele>985.4885254</ele>
        <time>2012-12-02T11:55:41Z</time>
      </trkpt>
      <trkpt lat="43.69167" lon="6.91292">
        <ele>989.3339844</ele>
        <time>2012-12-02T11:55:59Z</time>
      </trkpt>
      <trkpt lat="43.69185" lon="6.91259">
        <ele>990.2954102</ele>
        <time>2012-12-02T11:56:13Z</time>
      </trkpt>
      <trkpt lat="43.69216" lon="6.91217">
        <ele>993.6599121</ele>
        <time>2012-12-02T11:56:33Z</time>
      </trkpt>
      <trkpt lat="43.69221" lon="6.91195">
        <ele>994.6210938</ele>
        <time>2012-12-02T11:56:41Z</time>
      </trkpt>
      <trkpt lat="43.69223" lon="6.91184">
        <ele>994.6210938</ele>
        <time>2012-12-02T11:56:45Z</time>
      </trkpt>
      <trkpt lat="43.69256" lon="6.91164">
        <ele>997.9858398</ele>
        <time>2012-12-02T11:57:01Z</time>
      </trkpt>
      <trkpt lat="43.69285" lon="6.91163">
        <ele>1001.3503418</ele>
        <time>2012-12-02T11:57:16Z</time>
      </trkpt>
      <trkpt lat="43.69316" lon="6.91148">
        <ele>1004.2346191</ele>
        <time>2012-12-02T11:57:33Z</time>
      </trkpt>
      <trkpt lat="43.69337" lon="6.91128">
        <ele>1005.6765137</ele>
        <time>2012-12-02T11:57:46Z</time>
      </trkpt>
      <trkpt lat="43.69383" lon="6.91124">
        <ele>1008.5603027</ele>
        <time>2012-12-02T11:58:11Z</time>
      </trkpt>
      <trkpt lat="43.69388" lon="6.91136">
        <ele>1009.5217285</ele>
        <time>2012-12-02T11:58:17Z</time>
      </trkpt>
      <trkpt lat="43.69389" lon="6.91141">
        <ele>1009.5217285</ele>
        <time>2012-12-02T11:58:19Z</time>
      </trkpt>
      <trkpt lat="43.69403" lon="6.91188">
        <ele>1011.9250488</ele>
        <time>2012-12-02T11:58:38Z</time>
      </trkpt>
      <trkpt lat="43.69431" lon="6.91243">
        <ele>1013.3669434</ele>
        <time>2012-12-02T11:59:01Z</time>
      </trkpt>
      <trkpt lat="43.69474" lon="6.91288">
        <ele>1017.2121582</ele>
        <time>2012-12-02T11:59:25Z</time>
      </trkpt>
      <trkpt lat="43.69517" lon="6.91306">
        <ele>1020.0961914</ele>
        <time>2012-12-02T11:59:46Z</time>
      </trkpt>
      <trkpt lat="43.69553" lon="6.91331">
        <ele>1022.9802246</ele>
        <time>2012-12-02T12:00:05Z</time>
      </trkpt>
      <trkpt lat="43.69577" lon="6.91365">
        <ele>1026.8254395</ele>
        <time>2012-12-02T12:00:28Z</time>
      </trkpt>
      <trkpt lat="43.69585" lon="6.91372">
        <ele>1026.8254395</ele>
        <time>2012-12-02T12:01:12Z</time>
      </trkpt>
      <trkpt lat="43.69606" lon="6.9138">
        <ele>1027.7866211</ele>
        <time>2012-12-02T12:01:24Z</time>
      </trkpt>
      <trkpt lat="43.69608" lon="6.9138">
        <ele>1028.7480469</ele>
        <time>2012-12-02T12:01:26Z</time>
      </trkpt>
      <trkpt lat="43.69643" lon="6.91375">
        <ele>1031.6318359</ele>
        <time>2012-12-02T12:01:46Z</time>
      </trkpt>
      <trkpt lat="43.6968" lon="6.91364">
        <ele>1034.5158691</ele>
        <time>2012-12-02T12:02:05Z</time>
      </trkpt>
      <trkpt lat="43.69718" lon="6.91368">
        <ele>1036.4387207</ele>
        <time>2012-12-02T12:02:24Z</time>
      </trkpt>
      <trkpt lat="43.69755" lon="6.91334">
        <ele>1038.842041</ele>
        <time>2012-12-02T12:02:46Z</time>
      </trkpt>
      <trkpt lat="43.69772" lon="6.91305">
        <ele>1041.7258301</ele>
        <time>2012-12-02T12:03:00Z</time>
      </trkpt>
      <trkpt lat="43.69771" lon="6.91261">
        <ele>1045.090332</ele>
        <time>2012-12-02T12:03:18Z</time>
      </trkpt>
      <trkpt lat="43.69769" lon="6.91248">
        <ele>1046.5324707</ele>
        <time>2012-12-02T12:03:23Z</time>
      </trkpt>
      <trkpt lat="43.69759" lon="6.91209">
        <ele>1049.4162598</ele>
        <time>2012-12-02T12:03:39Z</time>
      </trkpt>
      <trkpt lat="43.69752" lon="6.91168">
        <ele>1052.300293</ele>
        <time>2012-12-02T12:03:54Z</time>
      </trkpt>
      <trkpt lat="43.69752" lon="6.91152">
        <ele>1052.300293</ele>
        <time>2012-12-02T12:03:59Z</time>
      </trkpt>
      <trkpt lat="43.69758" lon="6.91091">
        <ele>1054.2231445</ele>
        <time>2012-12-02T12:04:18Z</time>
      </trkpt>
      <trkpt lat="43.69763" lon="6.90998">
        <ele>1055.1843262</ele>
        <time>2012-12-02T12:04:42Z</time>
      </trkpt>
      <trkpt lat="43.69763" lon="6.90994">
        <ele>1055.6650391</ele>
        <time>2012-12-02T12:04:43Z</time>
      </trkpt>
      <trkpt lat="43.69804" lon="6.90945">
        <ele>1058.0683594</ele>
        <time>2012-12-02T12:05:03Z</time>
      </trkpt>
      <trkpt lat="43.69841" lon="6.90887">
        <ele>1060.4714355</ele>
        <time>2012-12-02T12:05:24Z</time>
      </trkpt>
      <trkpt lat="43.69858" lon="6.90825">
        <ele>1063.8359375</ele>
        <time>2012-12-02T12:05:42Z</time>
      </trkpt>
      <trkpt lat="43.69869" lon="6.90788">
        <ele>1065.2780762</ele>
        <time>2012-12-02T12:05:58Z</time>
      </trkpt>
      <trkpt lat="43.69881" lon="6.9074">
        <ele>1067.2006836</ele>
        <time>2012-12-02T12:06:16Z</time>
      </trkpt>
      <trkpt lat="43.69881" lon="6.9074">
        <ele>1067.2006836</ele>
        <time>2012-12-02T12:06:18Z</time>
      </trkpt>
      <trkpt lat="43.69883" lon="6.90735">
        <ele>1067.2006836</ele>
        <time>2012-12-02T12:06:22Z</time>
      </trkpt>
      <trkpt lat="43.69876" lon="6.90714">
        <ele>1067.2006836</ele>
        <time>2012-12-02T12:06:37Z</time>
      </trkpt>
      <trkpt lat="43.69876" lon="6.90714">
        <ele>1066.7199707</ele>
        <time>2012-12-02T12:06:49Z</time>
      </trkpt>
      <trkpt lat="43.69871" lon="6.90717">
        <ele>1066.7199707</ele>
        <time>2012-12-02T12:06:52Z</time>
      </trkpt>
      <trkpt lat="43.69867" lon="6.90719">
        <ele>1066.2392578</ele>
        <time>2012-12-02T12:06:55Z</time>
      </trkpt>
      <trkpt lat="43.69861" lon="6.90722">
        <ele>1065.2780762</ele>
        <time>2012-12-02T12:07:12Z</time>
      </trkpt>
      <trkpt lat="43.69861" lon="6.90722">
        <ele>1064.7973633</ele>
        <time>2012-12-02T12:08:57Z</time>
      </trkpt>
      <trkpt lat="43.69861" lon="6.90722">
        <ele>1064.3166504</ele>
        <time>2012-12-02T12:10:33Z</time>
      </trkpt>
      <trkpt lat="43.69856" lon="6.90722">
        <ele>1063.8359375</ele>
        <time>2012-12-02T12:10:56Z</time>
      </trkpt>
      <trkpt lat="43.69856" lon="6.90722">
        <ele>1064.3166504</ele>
        <time>2012-12-02T12:12:10Z</time>
      </trkpt>
      <trkpt lat="43.69842" lon="6.90722">
        <ele>1064.3166504</ele>
        <time>2012-12-02T12:12:25Z</time>
      </trkpt>
      <trkpt lat="43.69813" lon="6.90723">
        <ele>1063.3554688</ele>
        <time>2012-12-02T12:13:55Z</time>
      </trkpt>
      <trkpt lat="43.69779" lon="6.90725">
        <ele>1061.4328613</ele>
        <time>2012-12-02T12:14:05Z</time>
      </trkpt>
      <trkpt lat="43.69761" lon="6.90734">
        <ele>1059.9907227</ele>
        <time>2012-12-02T12:14:09Z</time>
      </trkpt>
      <trkpt lat="43.69727" lon="6.90766">
        <ele>1062.394043</ele>
        <time>2012-12-02T12:14:27Z</time>
      </trkpt>
      <trkpt lat="43.69715" lon="6.90783">
        <ele>1063.8359375</ele>
        <time>2012-12-02T12:14:44Z</time>
      </trkpt>
      <trkpt lat="43.69707" lon="6.90797">
        <ele>1065.2780762</ele>
        <time>2012-12-02T12:15:03Z</time>
      </trkpt>
      <trkpt lat="43.69707" lon="6.90797">
        <ele>1064.7973633</ele>
        <time>2012-12-02T12:16:06Z</time>
      </trkpt>
      <trkpt lat="43.69707" lon="6.90797">
        <ele>1065.2780762</ele>
        <time>2012-12-02T12:16:13Z</time>
      </trkpt>
      <trkpt lat="43.69698" lon="6.90819">
        <ele>1063.8359375</ele>
        <time>2012-12-02T12:16:31Z</time>
      </trkpt>
      <trkpt lat="43.69686" lon="6.90847">
        <ele>1065.2780762</ele>
        <time>2012-12-02T12:17:50Z</time>
      </trkpt>
      <trkpt lat="43.69677" lon="6.90867">
        <ele>1067.2006836</ele>
        <time>2012-12-02T12:17:58Z</time>
      </trkpt>
      <trkpt lat="43.69653" lon="6.90861">
        <ele>1067.2006836</ele>
        <time>2012-12-02T12:18:12Z</time>
      </trkpt>
      <trkpt lat="43.69651" lon="6.90859">
        <ele>1067.2006836</ele>
        <time>2012-12-02T12:18:13Z</time>
      </trkpt>
      <trkpt lat="43.69638" lon="6.9086">
        <ele>1064.7973633</ele>
        <time>2012-12-02T12:18:17Z</time>
      </trkpt>
      <trkpt lat="43.69612" lon="6.90906">
        <ele>1063.8359375</ele>
        <time>2012-12-02T12:18:31Z</time>
      </trkpt>
      <trkpt lat="43.69592" lon="6.90973">
        <ele>1061.9135742</ele>
        <time>2012-12-02T12:18:49Z</time>
      </trkpt>
      <trkpt lat="43.69589" lon="6.90977">
        <ele>1061.4328613</ele>
        <time>2012-12-02T12:18:50Z</time>
      </trkpt>
      <trkpt lat="43.69576" lon="6.90999">
        <ele>1059.5102539</ele>
        <time>2012-12-02T12:18:54Z</time>
      </trkpt>
      <trkpt lat="43.69571" lon="6.91007">
        <ele>1058.0683594</ele>
        <time>2012-12-02T12:18:56Z</time>
      </trkpt>
      <trkpt lat="43.6957" lon="6.91016">
        <ele>1057.5876465</ele>
        <time>2012-12-02T12:18:58Z</time>
      </trkpt>
      <trkpt lat="43.69557" lon="6.91029">
        <ele>1055.6650391</ele>
        <time>2012-12-02T12:19:03Z</time>
      </trkpt>
      <trkpt lat="43.69526" lon="6.91035">
        <ele>1052.7810059</ele>
        <time>2012-12-02T12:19:12Z</time>
      </trkpt>
      <trkpt lat="43.69511" lon="6.91016">
        <ele>1049.8969727</ele>
        <time>2012-12-02T12:19:18Z</time>
      </trkpt>
      <trkpt lat="43.69507" lon="6.9101">
        <ele>1048.454834</ele>
        <time>2012-12-02T12:19:20Z</time>
      </trkpt>
      <trkpt lat="43.69501" lon="6.91001">
        <ele>1047.4936523</ele>
        <time>2012-12-02T12:19:24Z</time>
      </trkpt>
      <trkpt lat="43.69499" lon="6.9101">
        <ele>1045.5710449</ele>
        <time>2012-12-02T12:19:28Z</time>
      </trkpt>
      <trkpt lat="43.69499" lon="6.91018">
        <ele>1045.090332</ele>
        <time>2012-12-02T12:19:30Z</time>
      </trkpt>
      <trkpt lat="43.69492" lon="6.91015">
        <ele>1044.1291504</ele>
        <time>2012-12-02T12:19:36Z</time>
      </trkpt>
      <trkpt lat="43.69479" lon="6.90994">
        <ele>1040.2839355</ele>
        <time>2012-12-02T12:19:41Z</time>
      </trkpt>
      <trkpt lat="43.69473" lon="6.90987">
        <ele>1038.842041</ele>
        <time>2012-12-02T12:19:44Z</time>
      </trkpt>
      <trkpt lat="43.69469" lon="6.9099">
        <ele>1037.8806152</ele>
        <time>2012-12-02T12:19:48Z</time>
      </trkpt>
      <trkpt lat="43.69464" lon="6.91019">
        <ele>1033.5544434</ele>
        <time>2012-12-02T12:19:55Z</time>
      </trkpt>
      <trkpt lat="43.69456" lon="6.91048">
        <ele>1030.6706543</ele>
        <time>2012-12-02T12:20:01Z</time>
      </trkpt>
      <trkpt lat="43.69456" lon="6.9107">
        <ele>1027.3061523</ele>
        <time>2012-12-02T12:20:07Z</time>
      </trkpt>
      <trkpt lat="43.69452" lon="6.91074">
        <ele>1027.3061523</ele>
        <time>2012-12-02T12:20:10Z</time>
      </trkpt>
      <trkpt lat="43.6944" lon="6.91065">
        <ele>1025.3833008</ele>
        <time>2012-12-02T12:20:16Z</time>
      </trkpt>
      <trkpt lat="43.69421" lon="6.91062">
        <ele>1022.0187988</ele>
        <time>2012-12-02T12:20:23Z</time>
      </trkpt>
      <trkpt lat="43.69405" lon="6.91073">
        <ele>1021.0576172</ele>
        <time>2012-12-02T12:20:31Z</time>
      </trkpt>
      <trkpt lat="43.69391" lon="6.9108">
        <ele>1019.6154785</ele>
        <time>2012-12-02T12:20:38Z</time>
      </trkpt>
      <trkpt lat="43.69385" lon="6.91083">
        <ele>1018.6540527</ele>
        <time>2012-12-02T12:20:40Z</time>
      </trkpt>
      <trkpt lat="43.69372" lon="6.9109">
        <ele>1016.2507324</ele>
        <time>2012-12-02T12:20:44Z</time>
      </trkpt>
      <trkpt lat="43.69353" lon="6.911">
        <ele>1012.8862305</ele>
        <time>2012-12-02T12:20:48Z</time>
      </trkpt>
      <trkpt lat="43.6935" lon="6.91103">
        <ele>1012.8862305</ele>
        <time>2012-12-02T12:20:49Z</time>
      </trkpt>
      <trkpt lat="43.69335" lon="6.91113">
        <ele>1010.0021973</ele>
        <time>2012-12-02T12:20:54Z</time>
      </trkpt>
      <trkpt lat="43.6933" lon="6.91126">
        <ele>1007.5991211</ele>
        <time>2012-12-02T12:20:58Z</time>
      </trkpt>
      <trkpt lat="43.69329" lon="6.91132">
        <ele>1004.7150879</ele>
        <time>2012-12-02T12:21:01Z</time>
      </trkpt>
      <trkpt lat="43.69312" lon="6.91152">
        <ele>1002.7922363</ele>
        <time>2012-12-02T12:21:04Z</time>
      </trkpt>
      <trkpt lat="43.69274" lon="6.91164">
        <ele>1000.3891602</ele>
        <time>2012-12-02T12:21:10Z</time>
      </trkpt>
      <trkpt lat="43.69258" lon="6.91164">
        <ele>998.9470215</ele>
        <time>2012-12-02T12:21:12Z</time>
      </trkpt>
      <trkpt lat="43.69242" lon="6.91166">
        <ele>997.0244141</ele>
        <time>2012-12-02T12:21:14Z</time>
      </trkpt>
      <trkpt lat="43.69221" lon="6.91193">
        <ele>994.140625</ele>
        <time>2012-12-02T12:21:19Z</time>
      </trkpt>
      <trkpt lat="43.69217" lon="6.91212">
        <ele>993.6599121</ele>
        <time>2012-12-02T12:21:21Z</time>
      </trkpt>
      <trkpt lat="43.692" lon="6.91239">
        <ele>991.7373047</ele>
        <time>2012-12-02T12:21:25Z</time>
      </trkpt>
      <trkpt lat="43.69189" lon="6.91252">
        <ele>990.7758789</ele>
        <time>2012-12-02T12:21:27Z</time>
      </trkpt>
      <trkpt lat="43.6917" lon="6.91287">
        <ele>988.8535156</ele>
        <time>2012-12-02T12:21:31Z</time>
      </trkpt>
      <trkpt lat="43.69159" lon="6.91304">
        <ele>987.4111328</ele>
        <time>2012-12-02T12:21:33Z</time>
      </trkpt>
      <trkpt lat="43.69144" lon="6.91316">
        <ele>985.9692383</ele>
        <time>2012-12-02T12:21:35Z</time>
      </trkpt>
      <trkpt lat="43.69136" lon="6.91322">
        <ele>984.5273438</ele>
        <time>2012-12-02T12:21:36Z</time>
      </trkpt>
      <trkpt lat="43.6912" lon="6.91333">
        <ele>983.565918</ele>
        <time>2012-12-02T12:21:38Z</time>
      </trkpt>
      <trkpt lat="43.69104" lon="6.91371">
        <ele>981.1628418</ele>
        <time>2012-12-02T12:21:42Z</time>
      </trkpt>
      <trkpt lat="43.69098" lon="6.91394">
        <ele>980.201416</ele>
        <time>2012-12-02T12:21:44Z</time>
      </trkpt>
      <trkpt lat="43.6908" lon="6.91432">
        <ele>977.7980957</ele>
        <time>2012-12-02T12:21:48Z</time>
      </trkpt>
      <trkpt lat="43.69067" lon="6.91478">
        <ele>975.8754883</ele>
        <time>2012-12-02T12:21:52Z</time>
      </trkpt>
      <trkpt lat="43.69064" lon="6.91533">
        <ele>972.9916992</ele>
        <time>2012-12-02T12:21:56Z</time>
      </trkpt>
      <trkpt lat="43.69062" lon="6.91571">
        <ele>971.0688477</ele>
        <time>2012-12-02T12:21:59Z</time>
      </trkpt>
      <trkpt lat="43.69056" lon="6.91611">
        <ele>968.1848145</ele>
        <time>2012-12-02T12:22:02Z</time>
      </trkpt>
      <trkpt lat="43.69051" lon="6.91622">
        <ele>968.1848145</ele>
        <time>2012-12-02T12:22:03Z</time>
      </trkpt>
      <trkpt lat="43.69019" lon="6.91666">
        <ele>966.7429199</ele>
        <time>2012-12-02T12:22:08Z</time>
      </trkpt>
      <trkpt lat="43.69004" lon="6.91677">
        <ele>965.7817383</ele>
        <time>2012-12-02T12:22:10Z</time>
      </trkpt>
      <trkpt lat="43.6899" lon="6.9171">
        <ele>963.8588867</ele>
        <time>2012-12-02T12:22:14Z</time>
      </trkpt>
      <trkpt lat="43.6899" lon="6.91721">
        <ele>962.8977051</ele>
        <time>2012-12-02T12:22:15Z</time>
      </trkpt>
      <trkpt lat="43.6899" lon="6.91745">
        <ele>960.9750977</ele>
        <time>2012-12-02T12:22:17Z</time>
      </trkpt>
      <trkpt lat="43.68988" lon="6.9177">
        <ele>958.5717773</ele>
        <time>2012-12-02T12:22:19Z</time>
      </trkpt>
      <trkpt lat="43.68982" lon="6.91794">
        <ele>956.6491699</ele>
        <time>2012-12-02T12:22:21Z</time>
      </trkpt>
      <trkpt lat="43.68963" lon="6.9182">
        <ele>952.8037109</ele>
        <time>2012-12-02T12:22:25Z</time>
      </trkpt>
      <trkpt lat="43.68957" lon="6.91822">
        <ele>952.8037109</ele>
        <time>2012-12-02T12:22:26Z</time>
      </trkpt>
      <trkpt lat="43.6894" lon="6.91824">
        <ele>951.8425293</ele>
        <time>2012-12-02T12:22:28Z</time>
      </trkpt>
      <trkpt lat="43.68923" lon="6.91828">
        <ele>948.9584961</ele>
        <time>2012-12-02T12:22:30Z</time>
      </trkpt>
      <trkpt lat="43.68898" lon="6.91837">
        <ele>947.0358887</ele>
        <time>2012-12-02T12:22:33Z</time>
      </trkpt>
      <trkpt lat="43.68888" lon="6.91844">
        <ele>947.0358887</ele>
        <time>2012-12-02T12:22:35Z</time>
      </trkpt>
      <trkpt lat="43.68873" lon="6.91838">
        <ele>946.5554199</ele>
        <time>2012-12-02T12:22:40Z</time>
      </trkpt>
      <trkpt lat="43.68842" lon="6.91836">
        <ele>947.5166016</ele>
        <time>2012-12-02T12:22:49Z</time>
      </trkpt>
      <trkpt lat="43.68829" lon="6.91835">
        <ele>945.5939941</ele>
        <time>2012-12-02T12:22:52Z</time>
      </trkpt>
      <trkpt lat="43.68795" lon="6.91823">
        <ele>943.1906738</ele>
        <time>2012-12-02T12:22:59Z</time>
      </trkpt>
      <trkpt lat="43.68767" lon="6.91829">
        <ele>942.7102051</ele>
        <time>2012-12-02T12:23:04Z</time>
      </trkpt>
      <trkpt lat="43.68753" lon="6.91836">
        <ele>942.2294922</ele>
        <time>2012-12-02T12:23:07Z</time>
      </trkpt>
      <trkpt lat="43.6874" lon="6.91842">
        <ele>941.2680664</ele>
        <time>2012-12-02T12:23:11Z</time>
      </trkpt>
      <trkpt lat="43.68724" lon="6.91852">
        <ele>940.3068848</ele>
        <time>2012-12-02T12:23:15Z</time>
      </trkpt>
      <trkpt lat="43.68713" lon="6.91858">
        <ele>939.3452148</ele>
        <time>2012-12-02T12:23:17Z</time>
      </trkpt>
      <trkpt lat="43.68701" lon="6.91864">
        <ele>937.4226074</ele>
        <time>2012-12-02T12:23:19Z</time>
      </trkpt>
      <trkpt lat="43.68694" lon="6.91866">
        <ele>937.4226074</ele>
        <time>2012-12-02T12:23:20Z</time>
      </trkpt>
      <trkpt lat="43.68672" lon="6.91884">
        <ele>935.0195313</ele>
        <time>2012-12-02T12:23:24Z</time>
      </trkpt>
      <trkpt lat="43.68666" lon="6.91887">
        <ele>935.0195313</ele>
        <time>2012-12-02T12:23:25Z</time>
      </trkpt>
      <trkpt lat="43.68638" lon="6.91905">
        <ele>932.135498</ele>
        <time>2012-12-02T12:23:30Z</time>
      </trkpt>
      <trkpt lat="43.68619" lon="6.91908">
        <ele>930.6936035</ele>
        <time>2012-12-02T12:23:33Z</time>
      </trkpt>
      <trkpt lat="43.68588" lon="6.91906">
        <ele>931.6547852</ele>
        <time>2012-12-02T12:23:38Z</time>
      </trkpt>
      <trkpt lat="43.68577" lon="6.91905">
        <ele>927.3291016</ele>
        <time>2012-12-02T12:23:40Z</time>
      </trkpt>
      <trkpt lat="43.68569" lon="6.919">
        <ele>925.8869629</ele>
        <time>2012-12-02T12:23:42Z</time>
      </trkpt>
      <trkpt lat="43.68562" lon="6.91896">
        <ele>925.40625</ele>
        <time>2012-12-02T12:23:44Z</time>
      </trkpt>
      <trkpt lat="43.6855" lon="6.91898">
        <ele>923.9641113</ele>
        <time>2012-12-02T12:23:47Z</time>
      </trkpt>
      <trkpt lat="43.6854" lon="6.91895">
        <ele>923.0029297</ele>
        <time>2012-12-02T12:23:49Z</time>
      </trkpt>
      <trkpt lat="43.68511" lon="6.91929">
        <ele>919.6384277</ele>
        <time>2012-12-02T12:23:56Z</time>
      </trkpt>
      <trkpt lat="43.68492" lon="6.91948">
        <ele>916.2736816</ele>
        <time>2012-12-02T12:24:00Z</time>
      </trkpt>
      <trkpt lat="43.68488" lon="6.91954">
        <ele>916.2736816</ele>
        <time>2012-12-02T12:24:01Z</time>
      </trkpt>
      <trkpt lat="43.68476" lon="6.91972">
        <ele>915.7932129</ele>
        <time>2012-12-02T12:24:04Z</time>
      </trkpt>
      <trkpt lat="43.68448" lon="6.92002">
        <ele>915.3125</ele>
        <time>2012-12-02T12:24:10Z</time>
      </trkpt>
      <trkpt lat="43.68431" lon="6.92018">
        <ele>913.3898926</ele>
        <time>2012-12-02T12:24:14Z</time>
      </trkpt>
      <trkpt lat="43.68415" lon="6.9203">
        <ele>912.9091797</ele>
        <time>2012-12-02T12:24:17Z</time>
      </trkpt>
      <trkpt lat="43.68401" lon="6.9204">
        <ele>912.4284668</ele>
        <time>2012-12-02T12:24:20Z</time>
      </trkpt>
      <trkpt lat="43.68367" lon="6.92086">
        <ele>910.5058594</ele>
        <time>2012-12-02T12:24:29Z</time>
      </trkpt>
      <trkpt lat="43.68361" lon="6.92095">
        <ele>909.0639648</ele>
        <time>2012-12-02T12:24:31Z</time>
      </trkpt>
      <trkpt lat="43.6835" lon="6.92111">
        <ele>906.6604004</ele>
        <time>2012-12-02T12:24:37Z</time>
      </trkpt>
      <trkpt lat="43.68345" lon="6.92118">
        <ele>904.737793</ele>
        <time>2012-12-02T12:24:39Z</time>
      </trkpt>
      <trkpt lat="43.68333" lon="6.92105">
        <ele>903.7766113</ele>
        <time>2012-12-02T12:24:42Z</time>
      </trkpt>
      <trkpt lat="43.6833" lon="6.92099">
        <ele>903.2958984</ele>
        <time>2012-12-02T12:24:43Z</time>
      </trkpt>
      <trkpt lat="43.68288" lon="6.92015">
        <ele>899.9313965</ele>
        <time>2012-12-02T12:24:56Z</time>
      </trkpt>
      <trkpt lat="43.68265" lon="6.92008">
        <ele>899.4506836</ele>
        <time>2012-12-02T12:25:01Z</time>
      </trkpt>
      <trkpt lat="43.68242" lon="6.92022">
        <ele>898.9699707</ele>
        <time>2012-12-02T12:25:06Z</time>
      </trkpt>
      <trkpt lat="43.68229" lon="6.92026">
        <ele>898.4892578</ele>
        <time>2012-12-02T12:25:09Z</time>
      </trkpt>
      <trkpt lat="43.6822" lon="6.92029">
        <ele>898.4892578</ele>
        <time>2012-12-02T12:25:12Z</time>
      </trkpt>
      <trkpt lat="43.68205" lon="6.92035">
        <ele>897.0473633</ele>
        <time>2012-12-02T12:25:17Z</time>
      </trkpt>
      <trkpt lat="43.68179" lon="6.92044">
        <ele>896.5668945</ele>
        <time>2012-12-02T12:25:22Z</time>
      </trkpt>
      <trkpt lat="43.68121" lon="6.92073">
        <ele>895.1247559</ele>
        <time>2012-12-02T12:25:33Z</time>
      </trkpt>
      <trkpt lat="43.681" lon="6.92085">
        <ele>895.1247559</ele>
        <time>2012-12-02T12:25:38Z</time>
      </trkpt>
      <trkpt lat="43.68091" lon="6.92089">
        <ele>895.1247559</ele>
        <time>2012-12-02T12:25:40Z</time>
      </trkpt>
      <trkpt lat="43.68077" lon="6.92097">
        <ele>893.6828613</ele>
        <time>2012-12-02T12:25:43Z</time>
      </trkpt>
      <trkpt lat="43.68066" lon="6.92102">
        <ele>892.7216797</ele>
        <time>2012-12-02T12:25:45Z</time>
      </trkpt>
      <trkpt lat="43.68054" lon="6.92109">
        <ele>891.7600098</ele>
        <time>2012-12-02T12:25:47Z</time>
      </trkpt>
      <trkpt lat="43.68048" lon="6.92114">
        <ele>889.8374023</ele>
        <time>2012-12-02T12:25:48Z</time>
      </trkpt>
      <trkpt lat="43.68034" lon="6.92119">
        <ele>888.3955078</ele>
        <time>2012-12-02T12:25:50Z</time>
      </trkpt>
      <trkpt lat="43.68021" lon="6.92121">
        <ele>887.9147949</ele>
        <time>2012-12-02T12:25:52Z</time>
      </trkpt>
      <trkpt lat="43.67977" lon="6.92137">
        <ele>885.9921875</ele>
        <time>2012-12-02T12:25:59Z</time>
      </trkpt>
      <trkpt lat="43.67956" lon="6.92145">
        <ele>885.0310059</ele>
        <time>2012-12-02T12:26:03Z</time>
      </trkpt>
      <trkpt lat="43.67921" lon="6.92153">
        <ele>882.1469727</ele>
        <time>2012-12-02T12:26:08Z</time>
      </trkpt>
      <trkpt lat="43.67904" lon="6.92155">
        <ele>881.6662598</ele>
        <time>2012-12-02T12:26:10Z</time>
      </trkpt>
      <trkpt lat="43.67871" lon="6.92155">
        <ele>881.185791</ele>
        <time>2012-12-02T12:26:14Z</time>
      </trkpt>
      <trkpt lat="43.67855" lon="6.92167">
        <ele>882.6276855</ele>
        <time>2012-12-02T12:26:17Z</time>
      </trkpt>
      <trkpt lat="43.67844" lon="6.92177">
        <ele>885.5114746</ele>
        <time>2012-12-02T12:26:20Z</time>
      </trkpt>
      <trkpt lat="43.67841" lon="6.92184">
        <ele>886.4729004</ele>
        <time>2012-12-02T12:26:22Z</time>
      </trkpt>
      <trkpt lat="43.67819" lon="6.92219">
        <ele>889.8374023</ele>
        <time>2012-12-02T12:26:35Z</time>
      </trkpt>
      <trkpt lat="43.67779" lon="6.92236">
        <ele>889.3566895</ele>
        <time>2012-12-02T12:26:49Z</time>
      </trkpt>
      <trkpt lat="43.67752" lon="6.92248">
        <ele>886.4729004</ele>
        <time>2012-12-02T12:26:56Z</time>
      </trkpt>
      <trkpt lat="43.67748" lon="6.9225">
        <ele>886.4729004</ele>
        <time>2012-12-02T12:26:57Z</time>
      </trkpt>
      <trkpt lat="43.67735" lon="6.92257">
        <ele>884.0695801</ele>
        <time>2012-12-02T12:27:01Z</time>
      </trkpt>
      <trkpt lat="43.6771" lon="6.92269">
        <ele>880.2243652</ele>
        <time>2012-12-02T12:27:09Z</time>
      </trkpt>
      <trkpt lat="43.67693" lon="6.92278">
        <ele>877.8210449</ele>
        <time>2012-12-02T12:27:15Z</time>
      </trkpt>
      <trkpt lat="43.67689" lon="6.92285">
        <ele>876.3791504</ele>
        <time>2012-12-02T12:27:17Z</time>
      </trkpt>
      <trkpt lat="43.67689" lon="6.92305">
        <ele>873.9755859</ele>
        <time>2012-12-02T12:27:25Z</time>
      </trkpt>
      <trkpt lat="43.67673" lon="6.923">
        <ele>871.5722656</ele>
        <time>2012-12-02T12:27:38Z</time>
      </trkpt>
      <trkpt lat="43.67673" lon="6.923">
        <ele>871.5722656</ele>
        <time>2012-12-02T12:29:00Z</time>
      </trkpt>
      <trkpt lat="43.67664" lon="6.92304">
        <ele>868.2077637</ele>
        <time>2012-12-02T12:29:13Z</time>
      </trkpt>
      <trkpt lat="43.67663" lon="6.92305">
        <ele>868.6884766</ele>
        <time>2012-12-02T12:30:24Z</time>
      </trkpt>
      <trkpt lat="43.67651" lon="6.92305">
        <ele>864.8432617</ele>
        <time>2012-12-02T12:30:32Z</time>
      </trkpt>
      <trkpt lat="43.6765" lon="6.92304">
        <ele>864.8432617</ele>
        <time>2012-12-02T12:30:33Z</time>
      </trkpt>
      <trkpt lat="43.67648" lon="6.92304">
        <ele>864.3625488</ele>
        <time>2012-12-02T12:30:34Z</time>
      </trkpt>
      <trkpt lat="43.67642" lon="6.92314">
        <ele>860.9980469</ele>
        <time>2012-12-02T12:30:42Z</time>
      </trkpt>
      <trkpt lat="43.67638" lon="6.92317">
        <ele>859.5559082</ele>
        <time>2012-12-02T12:30:45Z</time>
      </trkpt>
      <trkpt lat="43.67636" lon="6.9232">
        <ele>857.1525879</ele>
        <time>2012-12-02T12:30:47Z</time>
      </trkpt>
      <trkpt lat="43.67633" lon="6.9232">
        <ele>856.1911621</ele>
        <time>2012-12-02T12:30:49Z</time>
      </trkpt>
      <trkpt lat="43.6763" lon="6.92326">
        <ele>855.2299805</ele>
        <time>2012-12-02T12:30:52Z</time>
      </trkpt>
      <trkpt lat="43.67628" lon="6.92331">
        <ele>853.7880859</ele>
        <time>2012-12-02T12:30:54Z</time>
      </trkpt>
      <trkpt lat="43.67626" lon="6.92334">
        <ele>852.8266602</ele>
        <time>2012-12-02T12:30:55Z</time>
      </trkpt>
      <trkpt lat="43.67621" lon="6.92335">
        <ele>851.3847656</ele>
        <time>2012-12-02T12:30:58Z</time>
      </trkpt>
      <trkpt lat="43.67618" lon="6.92331">
        <ele>850.423584</ele>
        <time>2012-12-02T12:31:01Z</time>
      </trkpt>
      <trkpt lat="43.67608" lon="6.92311">
        <ele>849.9428711</ele>
        <time>2012-12-02T12:31:10Z</time>
      </trkpt>
      <trkpt lat="43.67603" lon="6.92304">
        <ele>848.5007324</ele>
        <time>2012-12-02T12:31:14Z</time>
      </trkpt>
      <trkpt lat="43.676" lon="6.92304">
        <ele>848.5007324</ele>
        <time>2012-12-02T12:31:16Z</time>
      </trkpt>
      <trkpt lat="43.67599" lon="6.9231">
        <ele>847.5395508</ele>
        <time>2012-12-02T12:31:19Z</time>
      </trkpt>
      <trkpt lat="43.67595" lon="6.92336">
        <ele>845.1362305</ele>
        <time>2012-12-02T12:31:27Z</time>
      </trkpt>
      <trkpt lat="43.67598" lon="6.92344">
        <ele>843.2133789</ele>
        <time>2012-12-02T12:31:31Z</time>
      </trkpt>
      <trkpt lat="43.67589" lon="6.92337">
        <ele>841.2907715</ele>
        <time>2012-12-02T12:31:36Z</time>
      </trkpt>
      <trkpt lat="43.67579" lon="6.92323">
        <ele>838.4069824</ele>
        <time>2012-12-02T12:31:41Z</time>
      </trkpt>
      <trkpt lat="43.67574" lon="6.92325">
        <ele>836.0036621</ele>
        <time>2012-12-02T12:31:46Z</time>
      </trkpt>
      <trkpt lat="43.67571" lon="6.92333">
        <ele>834.0810547</ele>
        <time>2012-12-02T12:31:49Z</time>
      </trkpt>
      <trkpt lat="43.67569" lon="6.92336">
        <ele>833.1196289</ele>
        <time>2012-12-02T12:31:51Z</time>
      </trkpt>
      <trkpt lat="43.67566" lon="6.92342">
        <ele>831.1972656</ele>
        <time>2012-12-02T12:31:53Z</time>
      </trkpt>
      <trkpt lat="43.67565" lon="6.92346">
        <ele>829.755127</ele>
        <time>2012-12-02T12:31:55Z</time>
      </trkpt>
      <trkpt lat="43.67565" lon="6.92348">
        <ele>828.7939453</ele>
        <time>2012-12-02T12:31:58Z</time>
      </trkpt>
      <trkpt lat="43.67553" lon="6.92342">
        <ele>827.8322754</ele>
        <time>2012-12-02T12:32:09Z</time>
      </trkpt>
      <trkpt lat="43.67553" lon="6.92342">
        <ele>827.3518066</ele>
        <time>2012-12-02T12:32:19Z</time>
      </trkpt>
      <trkpt lat="43.67544" lon="6.92319">
        <ele>825.909668</ele>
        <time>2012-12-02T12:32:26Z</time>
      </trkpt>
      <trkpt lat="43.67532" lon="6.92287">
        <ele>823.9870605</ele>
        <time>2012-12-02T12:32:31Z</time>
      </trkpt>
      <trkpt lat="43.67528" lon="6.92275">
        <ele>822.545166</ele>
        <time>2012-12-02T12:32:33Z</time>
      </trkpt>
      <trkpt lat="43.67523" lon="6.92262">
        <ele>821.1032715</ele>
        <time>2012-12-02T12:32:44Z</time>
      </trkpt>
      <trkpt lat="43.67523" lon="6.92262">
        <ele>821.1032715</ele>
        <time>2012-12-02T12:33:06Z</time>
      </trkpt>
      <trkpt lat="43.67525" lon="6.92266">
        <ele>818.6999512</ele>
        <time>2012-12-02T12:33:10Z</time>
      </trkpt>
      <trkpt lat="43.67513" lon="6.92277">
        <ele>817.2580566</ele>
        <time>2012-12-02T12:33:12Z</time>
      </trkpt>
      <trkpt lat="43.6751" lon="6.92277">
        <ele>813.8933105</ele>
        <time>2012-12-02T12:33:14Z</time>
      </trkpt>
      <trkpt lat="43.67504" lon="6.92273">
        <ele>812.451416</ele>
        <time>2012-12-02T12:33:17Z</time>
      </trkpt>
      <trkpt lat="43.67499" lon="6.92268">
        <ele>810.0478516</ele>
        <time>2012-12-02T12:33:19Z</time>
      </trkpt>
      <trkpt lat="43.67494" lon="6.92262">
        <ele>807.1640625</ele>
        <time>2012-12-02T12:33:21Z</time>
      </trkpt>
      <trkpt lat="43.67491" lon="6.92259">
        <ele>807.1640625</ele>
        <time>2012-12-02T12:33:22Z</time>
      </trkpt>
      <trkpt lat="43.67486" lon="6.9225">
        <ele>805.2414551</ele>
        <time>2012-12-02T12:33:24Z</time>
      </trkpt>
      <trkpt lat="43.67477" lon="6.92234">
        <ele>801.8769531</ele>
        <time>2012-12-02T12:33:28Z</time>
      </trkpt>
      <trkpt lat="43.67475" lon="6.9223">
        <ele>801.8769531</ele>
        <time>2012-12-02T12:33:29Z</time>
      </trkpt>
      <trkpt lat="43.67466" lon="6.92211">
        <ele>798.512207</ele>
        <time>2012-12-02T12:33:34Z</time>
      </trkpt>
      <trkpt lat="43.67462" lon="6.92203">
        <ele>797.5510254</ele>
        <time>2012-12-02T12:33:36Z</time>
      </trkpt>
      <trkpt lat="43.67458" lon="6.92196">
        <ele>795.6281738</ele>
        <time>2012-12-02T12:33:38Z</time>
      </trkpt>
      <trkpt lat="43.6745" lon="6.92179">
        <ele>791.782959</ele>
        <time>2012-12-02T12:33:42Z</time>
      </trkpt>
      <trkpt lat="43.67492" lon="6.92145">
        <ele>788.418457</ele>
        <time>2012-12-02T12:33:48Z</time>
      </trkpt>
      <trkpt lat="43.67435" lon="6.92153">
        <ele>786.4958496</ele>
        <time>2012-12-02T12:33:50Z</time>
      </trkpt>
      <trkpt lat="43.67433" lon="6.92146">
        <ele>785.0539551</ele>
        <time>2012-12-02T12:33:52Z</time>
      </trkpt>
      <trkpt lat="43.67425" lon="6.92118">
        <ele>781.2087402</ele>
        <time>2012-12-02T12:34:00Z</time>
      </trkpt>
      <trkpt lat="43.67425" lon="6.92117">
        <ele>781.2087402</ele>
        <time>2012-12-02T12:34:01Z</time>
      </trkpt>
      <trkpt lat="43.67422" lon="6.92117">
        <ele>781.2087402</ele>
        <time>2012-12-02T12:34:03Z</time>
      </trkpt>
      <trkpt lat="43.67421" lon="6.92121">
        <ele>779.7663574</ele>
        <time>2012-12-02T12:34:05Z</time>
      </trkpt>
      <trkpt lat="43.67413" lon="6.92109">
        <ele>777.3632813</ele>
        <time>2012-12-02T12:34:12Z</time>
      </trkpt>
      <trkpt lat="43.67409" lon="6.92114">
        <ele>775.9211426</ele>
        <time>2012-12-02T12:34:16Z</time>
      </trkpt>
      <trkpt lat="43.67404" lon="6.92132">
        <ele>771.1147461</ele>
        <time>2012-12-02T12:34:20Z</time>
      </trkpt>
      <trkpt lat="43.67404" lon="6.92137">
        <ele>771.1147461</ele>
        <time>2012-12-02T12:34:21Z</time>
      </trkpt>
      <trkpt lat="43.67403" lon="6.9214">
        <ele>770.6340332</ele>
        <time>2012-12-02T12:34:22Z</time>
      </trkpt>
      <trkpt lat="43.67397" lon="6.92139">
        <ele>768.7114258</ele>
        <time>2012-12-02T12:34:26Z</time>
      </trkpt>
      <trkpt lat="43.67392" lon="6.92124">
        <ele>766.7888184</ele>
        <time>2012-12-02T12:34:30Z</time>
      </trkpt>
      <trkpt lat="43.67386" lon="6.92112">
        <ele>763.4240723</ele>
        <time>2012-12-02T12:34:36Z</time>
      </trkpt>
      <trkpt lat="43.67379" lon="6.92097">
        <ele>761.020752</ele>
        <time>2012-12-02T12:34:41Z</time>
      </trkpt>
      <trkpt lat="43.67374" lon="6.92084">
        <ele>758.1369629</ele>
        <time>2012-12-02T12:34:44Z</time>
      </trkpt>
      <trkpt lat="43.6737" lon="6.92075">
        <ele>756.6948242</ele>
        <time>2012-12-02T12:34:46Z</time>
      </trkpt>
      <trkpt lat="43.67367" lon="6.92065">
        <ele>754.7722168</ele>
        <time>2012-12-02T12:34:48Z</time>
      </trkpt>
      <trkpt lat="43.67362" lon="6.92054">
        <ele>752.8496094</ele>
        <time>2012-12-02T12:34:51Z</time>
      </trkpt>
      <trkpt lat="43.67359" lon="6.92048">
        <ele>751.8884277</ele>
        <time>2012-12-02T12:34:53Z</time>
      </trkpt>
      <trkpt lat="43.67356" lon="6.92048">
        <ele>750.4465332</ele>
        <time>2012-12-02T12:34:56Z</time>
      </trkpt>
      <trkpt lat="43.67356" lon="6.92056">
        <ele>749.4851074</ele>
        <time>2012-12-02T12:34:58Z</time>
      </trkpt>
      <trkpt lat="43.67351" lon="6.92076">
        <ele>746.1203613</ele>
        <time>2012-12-02T12:35:04Z</time>
      </trkpt>
      <trkpt lat="43.67349" lon="6.92075">
        <ele>746.1203613</ele>
        <time>2012-12-02T12:35:05Z</time>
      </trkpt>
      <trkpt lat="43.67346" lon="6.92072">
        <ele>744.6782227</ele>
        <time>2012-12-02T12:35:07Z</time>
      </trkpt>
      <trkpt lat="43.6734" lon="6.92062">
        <ele>740.8330078</ele>
        <time>2012-12-02T12:35:11Z</time>
      </trkpt>
      <trkpt lat="43.67338" lon="6.92059">
        <ele>740.8330078</ele>
        <time>2012-12-02T12:35:12Z</time>
      </trkpt>
      <trkpt lat="43.67332" lon="6.92053">
        <ele>739.3911133</ele>
        <time>2012-12-02T12:35:14Z</time>
      </trkpt>
      <trkpt lat="43.67329" lon="6.92048">
        <ele>737.9492188</ele>
        <time>2012-12-02T12:35:16Z</time>
      </trkpt>
      <trkpt lat="43.67322" lon="6.92055">
        <ele>735.0654297</ele>
        <time>2012-12-02T12:35:20Z</time>
      </trkpt>
      <trkpt lat="43.67318" lon="6.92064">
        <ele>733.623291</ele>
        <time>2012-12-02T12:35:23Z</time>
      </trkpt>
      <trkpt lat="43.67314" lon="6.9207">
        <ele>732.6621094</ele>
        <time>2012-12-02T12:35:25Z</time>
      </trkpt>
      <trkpt lat="43.67309" lon="6.92071">
        <ele>730.2585449</ele>
        <time>2012-12-02T12:35:28Z</time>
      </trkpt>
      <trkpt lat="43.67267" lon="6.92082">
        <ele>727.3747559</ele>
        <time>2012-12-02T12:35:33Z</time>
      </trkpt>
      <trkpt lat="43.67267" lon="6.92082">
        <ele>725.9326172</ele>
        <time>2012-12-02T12:35:35Z</time>
      </trkpt>
      <trkpt lat="43.67267" lon="6.92082">
        <ele>725.4519043</ele>
        <time>2012-12-02T12:35:36Z</time>
      </trkpt>
      <trkpt lat="43.67267" lon="6.92082">
        <ele>724.0100098</ele>
        <time>2012-12-02T12:35:40Z</time>
      </trkpt>
      <trkpt lat="43.67263" lon="6.92075">
        <ele>722.0874023</ele>
        <time>2012-12-02T12:35:44Z</time>
      </trkpt>
      <trkpt lat="43.67263" lon="6.92075">
        <ele>721.1262207</ele>
        <time>2012-12-02T12:35:47Z</time>
      </trkpt>
      <trkpt lat="43.67248" lon="6.92049">
        <ele>719.2036133</ele>
        <time>2012-12-02T12:35:51Z</time>
      </trkpt>
      <trkpt lat="43.67248" lon="6.92049">
        <ele>717.7614746</ele>
        <time>2012-12-02T12:35:53Z</time>
      </trkpt>
      <trkpt lat="43.67248" lon="6.92049">
        <ele>716.3195801</ele>
        <time>2012-12-02T12:35:55Z</time>
      </trkpt>
      <trkpt lat="43.67274" lon="6.92094">
        <ele>713.9160156</ele>
        <time>2012-12-02T12:35:58Z</time>
      </trkpt>
      <trkpt lat="43.67275" lon="6.92097">
        <ele>713.4355469</ele>
        <time>2012-12-02T12:35:59Z</time>
      </trkpt>
      <trkpt lat="43.67288" lon="6.92128">
        <ele>716.3195801</ele>
        <time>2012-12-02T12:36:15Z</time>
      </trkpt>
      <trkpt lat="43.673" lon="6.92159">
        <ele>719.6843262</ele>
        <time>2012-12-02T12:36:30Z</time>
      </trkpt>
      <trkpt lat="43.67313" lon="6.92195">
        <ele>722.5681152</ele>
        <time>2012-12-02T12:36:47Z</time>
      </trkpt>
      <trkpt lat="43.67324" lon="6.92225">
        <ele>726.4133301</ele>
        <time>2012-12-02T12:37:02Z</time>
      </trkpt>
      <trkpt lat="43.6734" lon="6.92271">
        <ele>729.777832</ele>
        <time>2012-12-02T12:37:23Z</time>
      </trkpt>
      <trkpt lat="43.67352" lon="6.92306">
        <ele>732.1813965</ele>
        <time>2012-12-02T12:37:40Z</time>
      </trkpt>
      <trkpt lat="43.67365" lon="6.92339">
        <ele>735.5458984</ele>
        <time>2012-12-02T12:37:55Z</time>
      </trkpt>
      <trkpt lat="43.67376" lon="6.92381">
        <ele>737.9492188</ele>
        <time>2012-12-02T12:38:13Z</time>
      </trkpt>
      <trkpt lat="43.67382" lon="6.92424">
        <ele>740.8330078</ele>
        <time>2012-12-02T12:38:32Z</time>
      </trkpt>
      <trkpt lat="43.67384" lon="6.92434">
        <ele>741.7944336</ele>
        <time>2012-12-02T12:38:36Z</time>
      </trkpt>
      <trkpt lat="43.67399" lon="6.92493">
        <ele>745.1589355</ele>
        <time>2012-12-02T12:39:00Z</time>
      </trkpt>
      <trkpt lat="43.67417" lon="6.92527">
        <ele>748.5236816</ele>
        <time>2012-12-02T12:39:17Z</time>
      </trkpt>
      <trkpt lat="43.67422" lon="6.92536">
        <ele>749.4851074</ele>
        <time>2012-12-02T12:39:24Z</time>
      </trkpt>
      <trkpt lat="43.67438" lon="6.92559">
        <ele>752.3688965</ele>
        <time>2012-12-02T12:39:41Z</time>
      </trkpt>
      <trkpt lat="43.67446" lon="6.9257">
        <ele>753.8110352</ele>
        <time>2012-12-02T12:39:48Z</time>
      </trkpt>
      <trkpt lat="43.67462" lon="6.92584">
        <ele>755.7336426</ele>
        <time>2012-12-02T12:40:07Z</time>
      </trkpt>
      <trkpt lat="43.67475" lon="6.92593">
        <ele>757.1755371</ele>
        <time>2012-12-02T12:41:08Z</time>
      </trkpt>
      <trkpt lat="43.67505" lon="6.92607">
        <ele>760.5400391</ele>
        <time>2012-12-02T12:41:25Z</time>
      </trkpt>
      <trkpt lat="43.67535" lon="6.92618">
        <ele>762.9433594</ele>
        <time>2012-12-02T12:41:42Z</time>
      </trkpt>
      <trkpt lat="43.67553" lon="6.92621">
        <ele>764.385498</ele>
        <time>2012-12-02T12:41:52Z</time>
      </trkpt>
      <trkpt lat="43.67584" lon="6.92617">
        <ele>767.2695313</ele>
        <time>2012-12-02T12:42:08Z</time>
      </trkpt>
      <trkpt lat="43.67602" lon="6.92612">
        <ele>768.7114258</ele>
        <time>2012-12-02T12:42:19Z</time>
      </trkpt>
      <trkpt lat="43.67639" lon="6.92599">
        <ele>772.0759277</ele>
        <time>2012-12-02T12:42:39Z</time>
      </trkpt>
      <trkpt lat="43.67641" lon="6.92599">
        <ele>772.0759277</ele>
        <time>2012-12-02T12:42:41Z</time>
      </trkpt>
      <trkpt lat="43.67641" lon="6.92599">
        <ele>772.5566406</ele>
        <time>2012-12-02T12:42:57Z</time>
      </trkpt>
      <trkpt lat="43.67641" lon="6.92599">
        <ele>772.5566406</ele>
        <time>2012-12-02T12:42:58Z</time>
      </trkpt>
      <trkpt lat="43.67637" lon="6.926">
        <ele>771.1147461</ele>
        <time>2012-12-02T12:43:03Z</time>
      </trkpt>
      <trkpt lat="43.67631" lon="6.92602">
        <ele>769.6728516</ele>
        <time>2012-12-02T12:43:05Z</time>
      </trkpt>
      <trkpt lat="43.67619" lon="6.92606">
        <ele>767.2695313</ele>
        <time>2012-12-02T12:43:09Z</time>
      </trkpt>
      <trkpt lat="43.67609" lon="6.9261">
        <ele>764.8662109</ele>
        <time>2012-12-02T12:43:12Z</time>
      </trkpt>
      <trkpt lat="43.67597" lon="6.92641">
        <ele>761.9821777</ele>
        <time>2012-12-02T12:43:18Z</time>
      </trkpt>
      <trkpt lat="43.67577" lon="6.92658">
        <ele>758.1369629</ele>
        <time>2012-12-02T12:43:26Z</time>
      </trkpt>
      <trkpt lat="43.67567" lon="6.92667">
        <ele>755.7336426</ele>
        <time>2012-12-02T12:43:31Z</time>
      </trkpt>
      <trkpt lat="43.67559" lon="6.92674">
        <ele>753.3303223</ele>
        <time>2012-12-02T12:43:35Z</time>
      </trkpt>
      <trkpt lat="43.67556" lon="6.92677">
        <ele>753.3303223</ele>
        <time>2012-12-02T12:43:37Z</time>
      </trkpt>
      <trkpt lat="43.67549" lon="6.92682">
        <ele>750.927002</ele>
        <time>2012-12-02T12:43:41Z</time>
      </trkpt>
      <trkpt lat="43.67543" lon="6.92684">
        <ele>749.0043945</ele>
        <time>2012-12-02T12:43:45Z</time>
      </trkpt>
      <trkpt lat="43.67525" lon="6.92691">
        <ele>745.1589355</ele>
        <time>2012-12-02T12:43:52Z</time>
      </trkpt>
      <trkpt lat="43.67521" lon="6.92692">
        <ele>744.6782227</ele>
        <time>2012-12-02T12:43:54Z</time>
      </trkpt>
      <trkpt lat="43.67515" lon="6.92692">
        <ele>742.2751465</ele>
        <time>2012-12-02T12:44:05Z</time>
      </trkpt>
      <trkpt lat="43.67515" lon="6.92692">
        <ele>741.7944336</ele>
        <time>2012-12-02T12:44:19Z</time>
      </trkpt>
      <trkpt lat="43.67492" lon="6.92693">
        <ele>738.9106445</ele>
        <time>2012-12-02T12:44:28Z</time>
      </trkpt>
      <trkpt lat="43.67484" lon="6.92697">
        <ele>736.5073242</ele>
        <time>2012-12-02T12:44:32Z</time>
      </trkpt>
      <trkpt lat="43.6747" lon="6.92697">
        <ele>734.5847168</ele>
        <time>2012-12-02T12:44:36Z</time>
      </trkpt>
      <trkpt lat="43.67461" lon="6.92695">
        <ele>732.1813965</ele>
        <time>2012-12-02T12:44:38Z</time>
      </trkpt>
      <trkpt lat="43.67453" lon="6.92694">
        <ele>731.2199707</ele>
        <time>2012-12-02T12:44:40Z</time>
      </trkpt>
      <trkpt lat="43.67442" lon="6.92692">
        <ele>728.8166504</ele>
        <time>2012-12-02T12:44:43Z</time>
      </trkpt>
      <trkpt lat="43.67435" lon="6.9269">
        <ele>727.3747559</ele>
        <time>2012-12-02T12:44:45Z</time>
      </trkpt>
      <trkpt lat="43.67428" lon="6.92688">
        <ele>725.9326172</ele>
        <time>2012-12-02T12:44:47Z</time>
      </trkpt>
      <trkpt lat="43.67417" lon="6.92685">
        <ele>723.529541</ele>
        <time>2012-12-02T12:44:50Z</time>
      </trkpt>
      <trkpt lat="43.67409" lon="6.92682">
        <ele>722.5681152</ele>
        <time>2012-12-02T12:44:52Z</time>
      </trkpt>
      <trkpt lat="43.674" lon="6.92679">
        <ele>721.1262207</ele>
        <time>2012-12-02T12:44:54Z</time>
      </trkpt>
      <trkpt lat="43.67389" lon="6.92675">
        <ele>718.7229004</ele>
        <time>2012-12-02T12:44:57Z</time>
      </trkpt>
      <trkpt lat="43.67384" lon="6.92673">
        <ele>717.2810059</ele>
        <time>2012-12-02T12:44:59Z</time>
      </trkpt>
      <trkpt lat="43.67374" lon="6.92671">
        <ele>714.8774414</ele>
        <time>2012-12-02T12:45:04Z</time>
      </trkpt>
      <trkpt lat="43.67361" lon="6.92668">
        <ele>711.5129395</ele>
        <time>2012-12-02T12:45:09Z</time>
      </trkpt>
      <trkpt lat="43.67356" lon="6.92665">
        <ele>710.5515137</ele>
        <time>2012-12-02T12:45:11Z</time>
      </trkpt>
      <trkpt lat="43.67353" lon="6.92664">
        <ele>709.1096191</ele>
        <time>2012-12-02T12:45:13Z</time>
      </trkpt>
      <trkpt lat="43.67348" lon="6.92662">
        <ele>708.6289063</ele>
        <time>2012-12-02T12:45:15Z</time>
      </trkpt>
      <trkpt lat="43.67341" lon="6.92661">
        <ele>706.7062988</ele>
        <time>2012-12-02T12:45:18Z</time>
      </trkpt>
      <trkpt lat="43.67336" lon="6.92662">
        <ele>704.7836914</ele>
        <time>2012-12-02T12:45:20Z</time>
      </trkpt>
      <trkpt lat="43.67331" lon="6.92661">
        <ele>703.3417969</ele>
        <time>2012-12-02T12:45:22Z</time>
      </trkpt>
      <trkpt lat="43.6733" lon="6.92661">
        <ele>701.8999023</ele>
        <time>2012-12-02T12:45:23Z</time>
      </trkpt>
      <trkpt lat="43.67322" lon="6.92659">
        <ele>699.4963379</ele>
        <time>2012-12-02T12:45:27Z</time>
      </trkpt>
      <trkpt lat="43.67313" lon="6.92645">
        <ele>697.0930176</ele>
        <time>2012-12-02T12:45:31Z</time>
      </trkpt>
      <trkpt lat="43.67307" lon="6.92631">
        <ele>695.1704102</ele>
        <time>2012-12-02T12:45:34Z</time>
      </trkpt>
      <trkpt lat="43.67303" lon="6.92622">
        <ele>693.7285156</ele>
        <time>2012-12-02T12:45:36Z</time>
      </trkpt>
      <trkpt lat="43.673" lon="6.92615">
        <ele>692.2866211</ele>
        <time>2012-12-02T12:45:38Z</time>
      </trkpt>
      <trkpt lat="43.67296" lon="6.92609">
        <ele>691.8059082</ele>
        <time>2012-12-02T12:45:40Z</time>
      </trkpt>
      <trkpt lat="43.67289" lon="6.926">
        <ele>690.3640137</ele>
        <time>2012-12-02T12:45:43Z</time>
      </trkpt>
      <trkpt lat="43.67285" lon="6.92592">
        <ele>689.4025879</ele>
        <time>2012-12-02T12:45:45Z</time>
      </trkpt>
      <trkpt lat="43.67283" lon="6.92588">
        <ele>686.5187988</ele>
        <time>2012-12-02T12:45:47Z</time>
      </trkpt>
      <trkpt lat="43.67273" lon="6.92576">
        <ele>685.0769043</ele>
        <time>2012-12-02T12:45:50Z</time>
      </trkpt>
      <trkpt lat="43.67269" lon="6.92566">
        <ele>683.6345215</ele>
        <time>2012-12-02T12:45:52Z</time>
      </trkpt>
      <trkpt lat="43.67265" lon="6.92553">
        <ele>680.2700195</ele>
        <time>2012-12-02T12:45:54Z</time>
      </trkpt>
      <trkpt lat="43.67254" lon="6.92528">
        <ele>677.3862305</ele>
        <time>2012-12-02T12:45:58Z</time>
      </trkpt>
      <trkpt lat="43.67252" lon="6.92522">
        <ele>677.3862305</ele>
        <time>2012-12-02T12:45:59Z</time>
      </trkpt>
      <trkpt lat="43.67243" lon="6.92499">
        <ele>673.5410156</ele>
        <time>2012-12-02T12:46:04Z</time>
      </trkpt>
      <trkpt lat="43.67238" lon="6.9249">
        <ele>672.098877</ele>
        <time>2012-12-02T12:46:06Z</time>
      </trkpt>
      <trkpt lat="43.67235" lon="6.92484">
        <ele>670.6569824</ele>
        <time>2012-12-02T12:46:08Z</time>
      </trkpt>
      <trkpt lat="43.6723" lon="6.92476">
        <ele>668.734375</ele>
        <time>2012-12-02T12:46:11Z</time>
      </trkpt>
      <trkpt lat="43.67223" lon="6.92466">
        <ele>665.3696289</ele>
        <time>2012-12-02T12:46:15Z</time>
      </trkpt>
      <trkpt lat="43.67219" lon="6.92458">
        <ele>663.9274902</ele>
        <time>2012-12-02T12:46:18Z</time>
      </trkpt>
      <trkpt lat="43.67214" lon="6.92433">
        <ele>661.5244141</ele>
        <time>2012-12-02T12:46:22Z</time>
      </trkpt>
      <trkpt lat="43.67211" lon="6.92417">
        <ele>657.6791992</ele>
        <time>2012-12-02T12:46:24Z</time>
      </trkpt>
      <trkpt lat="43.6721" lon="6.9241">
        <ele>657.6791992</ele>
        <time>2012-12-02T12:46:25Z</time>
      </trkpt>
      <trkpt lat="43.67206" lon="6.92394">
        <ele>656.2370605</ele>
        <time>2012-12-02T12:46:27Z</time>
      </trkpt>
      <trkpt lat="43.67201" lon="6.9238">
        <ele>653.8339844</ele>
        <time>2012-12-02T12:46:29Z</time>
      </trkpt>
      <trkpt lat="43.67196" lon="6.92367">
        <ele>651.9111328</ele>
        <time>2012-12-02T12:46:32Z</time>
      </trkpt>
      <trkpt lat="43.67185" lon="6.92343">
        <ele>649.5078125</ele>
        <time>2012-12-02T12:46:36Z</time>
      </trkpt>
      <trkpt lat="43.6718" lon="6.92332">
        <ele>646.1433105</ele>
        <time>2012-12-02T12:46:38Z</time>
      </trkpt>
      <trkpt lat="43.67178" lon="6.92328">
        <ele>646.1433105</ele>
        <time>2012-12-02T12:46:39Z</time>
      </trkpt>
      <trkpt lat="43.67174" lon="6.92321">
        <ele>644.2207031</ele>
        <time>2012-12-02T12:46:41Z</time>
      </trkpt>
      <trkpt lat="43.67169" lon="6.92311">
        <ele>642.7788086</ele>
        <time>2012-12-02T12:46:44Z</time>
      </trkpt>
      <trkpt lat="43.67158" lon="6.92291">
        <ele>639.8947754</ele>
        <time>2012-12-02T12:46:48Z</time>
      </trkpt>
      <trkpt lat="43.67149" lon="6.92279">
        <ele>636.5302734</ele>
        <time>2012-12-02T12:46:51Z</time>
      </trkpt>
      <trkpt lat="43.67146" lon="6.92275">
        <ele>636.5302734</ele>
        <time>2012-12-02T12:46:52Z</time>
      </trkpt>
      <trkpt lat="43.67137" lon="6.92265">
        <ele>633.6459961</ele>
        <time>2012-12-02T12:46:56Z</time>
      </trkpt>
      <trkpt lat="43.67134" lon="6.92262">
        <ele>633.6459961</ele>
        <time>2012-12-02T12:46:57Z</time>
      </trkpt>
      <trkpt lat="43.67129" lon="6.92256">
        <ele>632.2041016</ele>
        <time>2012-12-02T12:46:59Z</time>
      </trkpt>
      <trkpt lat="43.67124" lon="6.92249">
        <ele>630.762207</ele>
        <time>2012-12-02T12:47:01Z</time>
      </trkpt>
      <trkpt lat="43.67117" lon="6.92241">
        <ele>629.3200684</ele>
        <time>2012-12-02T12:47:04Z</time>
      </trkpt>
      <trkpt lat="43.67095" lon="6.92233">
        <ele>625.9555664</ele>
        <time>2012-12-02T12:47:11Z</time>
      </trkpt>
      <trkpt lat="43.6708" lon="6.92231">
        <ele>624.032959</ele>
        <time>2012-12-02T12:47:15Z</time>
      </trkpt>
      <trkpt lat="43.67071" lon="6.9223">
        <ele>622.1103516</ele>
        <time>2012-12-02T12:47:18Z</time>
      </trkpt>
      <trkpt lat="43.67057" lon="6.92227">
        <ele>620.1877441</ele>
        <time>2012-12-02T12:47:22Z</time>
      </trkpt>
      <trkpt lat="43.67047" lon="6.92225">
        <ele>618.2648926</ele>
        <time>2012-12-02T12:47:25Z</time>
      </trkpt>
      <trkpt lat="43.67043" lon="6.92224">
        <ele>617.3037109</ele>
        <time>2012-12-02T12:47:26Z</time>
      </trkpt>
      <trkpt lat="43.67025" lon="6.92218">
        <ele>614.4196777</ele>
        <time>2012-12-02T12:47:32Z</time>
      </trkpt>
      <trkpt lat="43.6701" lon="6.92212">
        <ele>611.5358887</ele>
        <time>2012-12-02T12:47:38Z</time>
      </trkpt>
      <trkpt lat="43.67001" lon="6.9221">
        <ele>609.6132813</ele>
        <time>2012-12-02T12:47:41Z</time>
      </trkpt>
      <trkpt lat="43.66985" lon="6.92204">
        <ele>606.729248</ele>
        <time>2012-12-02T12:47:48Z</time>
      </trkpt>
      <trkpt lat="43.66972" lon="6.92196">
        <ele>603.8452148</ele>
        <time>2012-12-02T12:47:53Z</time>
      </trkpt>
      <trkpt lat="43.66966" lon="6.92191">
        <ele>603.364502</ele>
        <time>2012-12-02T12:47:55Z</time>
      </trkpt>
      <trkpt lat="43.66953" lon="6.92179">
        <ele>600.9611816</ele>
        <time>2012-12-02T12:48:00Z</time>
      </trkpt>
      <trkpt lat="43.66949" lon="6.92175">
        <ele>600</ele>
        <time>2012-12-02T12:48:02Z</time>
      </trkpt>
      <trkpt lat="43.66936" lon="6.92163">
        <ele>597.5966797</ele>
        <time>2012-12-02T12:48:07Z</time>
      </trkpt>
      <trkpt lat="43.66918" lon="6.92147">
        <ele>593.7514648</ele>
        <time>2012-12-02T12:48:15Z</time>
      </trkpt>
      <trkpt lat="43.66916" lon="6.92145">
        <ele>593.7514648</ele>
        <time>2012-12-02T12:48:16Z</time>
      </trkpt>
      <trkpt lat="43.66897" lon="6.92126">
        <ele>590.8674316</ele>
        <time>2012-12-02T12:48:23Z</time>
      </trkpt>
      <trkpt lat="43.66886" lon="6.92112">
        <ele>588.9450684</ele>
        <time>2012-12-02T12:48:28Z</time>
      </trkpt>
      <trkpt lat="43.66872" lon="6.92098">
        <ele>585.5800781</ele>
        <time>2012-12-02T12:48:34Z</time>
      </trkpt>
      <trkpt lat="43.66869" lon="6.92097">
        <ele>585.5800781</ele>
        <time>2012-12-02T12:48:35Z</time>
      </trkpt>
      <trkpt lat="43.66862" lon="6.92093">
        <ele>583.6574707</ele>
        <time>2012-12-02T12:48:46Z</time>
      </trkpt>
      <trkpt lat="43.66855" lon="6.9209">
        <ele>582.2155762</ele>
        <time>2012-12-02T12:48:48Z</time>
      </trkpt>
      <trkpt lat="43.66851" lon="6.92087">
        <ele>580.2929688</ele>
        <time>2012-12-02T12:48:49Z</time>
      </trkpt>
      <trkpt lat="43.6684" lon="6.9208">
        <ele>579.8122559</ele>
        <time>2012-12-02T12:48:52Z</time>
      </trkpt>
      <trkpt lat="43.66835" lon="6.92076">
        <ele>578.3703613</ele>
        <time>2012-12-02T12:48:54Z</time>
      </trkpt>
      <trkpt lat="43.66828" lon="6.92076">
        <ele>576.9284668</ele>
        <time>2012-12-02T12:48:57Z</time>
      </trkpt>
      <trkpt lat="43.66826" lon="6.92076">
        <ele>575.967041</ele>
        <time>2012-12-02T12:48:58Z</time>
      </trkpt>
      <trkpt lat="43.66824" lon="6.92076">
        <ele>574.0444336</ele>
        <time>2012-12-02T12:49:10Z</time>
      </trkpt>
      <trkpt lat="43.66813" lon="6.92074">
        <ele>572.1218262</ele>
        <time>2012-12-02T12:49:14Z</time>
      </trkpt>
      <trkpt lat="43.66808" lon="6.92071">
        <ele>571.6408691</ele>
        <time>2012-12-02T12:49:18Z</time>
      </trkpt>
      <trkpt lat="43.66801" lon="6.92063">
        <ele>569.7185059</ele>
        <time>2012-12-02T12:49:22Z</time>
      </trkpt>
      <trkpt lat="43.66797" lon="6.9206">
        <ele>569.237793</ele>
        <time>2012-12-02T12:49:24Z</time>
      </trkpt>
      <trkpt lat="43.66792" lon="6.92056">
        <ele>568.2763672</ele>
        <time>2012-12-02T12:49:27Z</time>
      </trkpt>
      <trkpt lat="43.6678" lon="6.92049">
        <ele>564.4311523</ele>
        <time>2012-12-02T12:49:33Z</time>
      </trkpt>
      <trkpt lat="43.66773" lon="6.9205">
        <ele>563.9504395</ele>
        <time>2012-12-02T12:49:36Z</time>
      </trkpt>
      <trkpt lat="43.66771" lon="6.92067">
        <ele>561.5473633</ele>
        <time>2012-12-02T12:49:41Z</time>
      </trkpt>
      <trkpt lat="43.66771" lon="6.9207">
        <ele>560.5859375</ele>
        <time>2012-12-02T12:49:52Z</time>
      </trkpt>
      <trkpt lat="43.6676" lon="6.92076">
        <ele>558.6633301</ele>
        <time>2012-12-02T12:49:59Z</time>
      </trkpt>
      <trkpt lat="43.66757" lon="6.92076">
        <ele>557.2214355</ele>
        <time>2012-12-02T12:50:01Z</time>
      </trkpt>
      <trkpt lat="43.6675" lon="6.92081">
        <ele>554.3374023</ele>
        <time>2012-12-02T12:50:04Z</time>
      </trkpt>
      <trkpt lat="43.66741" lon="6.92094">
        <ele>551.934082</ele>
        <time>2012-12-02T12:50:08Z</time>
      </trkpt>
      <trkpt lat="43.66736" lon="6.921">
        <ele>550.9726563</ele>
        <time>2012-12-02T12:50:11Z</time>
      </trkpt>
      <trkpt lat="43.66736" lon="6.92126">
        <ele>548.5693359</ele>
        <time>2012-12-02T12:50:15Z</time>
      </trkpt>
      <trkpt lat="43.66755" lon="6.92183">
        <ele>547.6081543</ele>
        <time>2012-12-02T12:50:27Z</time>
      </trkpt>
      <trkpt lat="43.6677" lon="6.92188">
        <ele>547.1274414</ele>
        <time>2012-12-02T12:50:30Z</time>
      </trkpt>
      <trkpt lat="43.66785" lon="6.92217">
        <ele>546.6468506</ele>
        <time>2012-12-02T12:50:47Z</time>
      </trkpt>
      <trkpt lat="43.66785" lon="6.92217">
        <ele>546.6468506</ele>
        <time>2012-12-02T12:51:09Z</time>
      </trkpt>
      <trkpt lat="43.66785" lon="6.92217">
        <ele>547.6081543</ele>
        <time>2012-12-02T12:51:34Z</time>
      </trkpt>
    </trkseg>
  </trk>
</gpx>